<?xml version="1.0" encoding="UTF-8" standalone="no" ?>
<gpx xmlns="http://www.topografix.com/GPX/1/1" xmlns:xsi="http://www.w3.org/2001/XMLSchema-instance" xsi:schemaLocation="http://www.topografix.com/GPX/1/1 http://www.topografix.com/GPX/1/1/gpx.xsd" version="1.1" creator="VisuGPX - https://www.visugpx.com">
  <metadata>
    <name>la robine</name>
    <desc><![CDATA[village abandonné]]></desc>
  </metadata>
  <trk>
    <name><![CDATA[LA ROBINE  15:19:42]]></name>
    <trkseg>
      <trkpt lat="44.21361" lon="6.0824">
        <ele>651.43</ele>
        <time>2013-07-30T09:37:34Z</time>
      </trkpt>
      <trkpt lat="44.2136" lon="6.08242">
        <ele>651.91</ele>
        <time>2013-07-30T09:37:35Z</time>
      </trkpt>
      <trkpt lat="44.21355" lon="6.08243">
        <ele>652.87</ele>
        <time>2013-07-30T09:37:40Z</time>
      </trkpt>
      <trkpt lat="44.21352" lon="6.08243">
        <ele>652.87</ele>
        <time>2013-07-30T09:37:43Z</time>
      </trkpt>
      <trkpt lat="44.21343" lon="6.08251">
        <ele>651.91</ele>
        <time>2013-07-30T09:37:54Z</time>
      </trkpt>
      <trkpt lat="44.21342" lon="6.08252">
        <ele>653.35</ele>
        <time>2013-07-30T09:37:55Z</time>
      </trkpt>
      <trkpt lat="44.21337" lon="6.08268">
        <ele>654.31</ele>
        <time>2013-07-30T09:38:06Z</time>
      </trkpt>
      <trkpt lat="44.21328" lon="6.08283">
        <ele>654.8</ele>
        <time>2013-07-30T09:38:22Z</time>
      </trkpt>
      <trkpt lat="44.21326" lon="6.08287">
        <ele>655.28</ele>
        <time>2013-07-30T09:38:25Z</time>
      </trkpt>
      <trkpt lat="44.21326" lon="6.08289">
        <ele>653.35</ele>
        <time>2013-07-30T09:38:34Z</time>
      </trkpt>
      <trkpt lat="44.21325" lon="6.08289">
        <ele>655.76</ele>
        <time>2013-07-30T09:38:35Z</time>
      </trkpt>
      <trkpt lat="44.21322" lon="6.08293">
        <ele>655.76</ele>
        <time>2013-07-30T09:38:40Z</time>
      </trkpt>
      <trkpt lat="44.2132" lon="6.08309">
        <ele>655.28</ele>
        <time>2013-07-30T09:38:57Z</time>
      </trkpt>
      <trkpt lat="44.21374" lon="6.08494">
        <ele>655.28</ele>
        <time>2013-07-30T09:39:20Z</time>
      </trkpt>
      <trkpt lat="44.21378" lon="6.08516">
        <ele>656.24</ele>
        <time>2013-07-30T09:39:35Z</time>
      </trkpt>
      <trkpt lat="44.2138" lon="6.08513">
        <ele>657.68</ele>
        <time>2013-07-30T09:40:03Z</time>
      </trkpt>
      <trkpt lat="44.21383" lon="6.08513">
        <ele>659.6</ele>
        <time>2013-07-30T09:40:32Z</time>
      </trkpt>
      <trkpt lat="44.21382" lon="6.08515">
        <ele>661.04</ele>
        <time>2013-07-30T09:40:59Z</time>
      </trkpt>
      <trkpt lat="44.21386" lon="6.08513">
        <ele>662.49</ele>
        <time>2013-07-30T09:41:25Z</time>
      </trkpt>
      <trkpt lat="44.21381" lon="6.08512">
        <ele>662.97</ele>
        <time>2013-07-30T09:41:44Z</time>
      </trkpt>
      <trkpt lat="44.21371" lon="6.08504">
        <ele>662.49</ele>
        <time>2013-07-30T09:41:59Z</time>
      </trkpt>
      <trkpt lat="44.2137" lon="6.08498">
        <ele>662.97</ele>
        <time>2013-07-30T09:42:14Z</time>
      </trkpt>
      <trkpt lat="44.21374" lon="6.08493">
        <ele>664.89</ele>
        <time>2013-07-30T09:42:28Z</time>
      </trkpt>
      <trkpt lat="44.21369" lon="6.08484">
        <ele>668.25</ele>
        <time>2013-07-30T09:42:46Z</time>
      </trkpt>
      <trkpt lat="44.21366" lon="6.08493">
        <ele>671.14</ele>
        <time>2013-07-30T09:43:04Z</time>
      </trkpt>
      <trkpt lat="44.21364" lon="6.08497">
        <ele>671.62</ele>
        <time>2013-07-30T09:43:22Z</time>
      </trkpt>
      <trkpt lat="44.21364" lon="6.08499">
        <ele>672.58</ele>
        <time>2013-07-30T09:43:42Z</time>
      </trkpt>
      <trkpt lat="44.21363" lon="6.08501">
        <ele>674.02</ele>
        <time>2013-07-30T09:43:59Z</time>
      </trkpt>
      <trkpt lat="44.2135" lon="6.08502">
        <ele>677.39</ele>
        <time>2013-07-30T09:44:10Z</time>
      </trkpt>
      <trkpt lat="44.21329" lon="6.08493">
        <ele>678.83</ele>
        <time>2013-07-30T09:44:26Z</time>
      </trkpt>
      <trkpt lat="44.21331" lon="6.08491">
        <ele>680.75</ele>
        <time>2013-07-30T09:44:42Z</time>
      </trkpt>
      <trkpt lat="44.21336" lon="6.08486">
        <ele>682.67</ele>
        <time>2013-07-30T09:44:57Z</time>
      </trkpt>
      <trkpt lat="44.21335" lon="6.08474">
        <ele>684.12</ele>
        <time>2013-07-30T09:45:11Z</time>
      </trkpt>
      <trkpt lat="44.21323" lon="6.08455">
        <ele>687.96</ele>
        <time>2013-07-30T09:45:27Z</time>
      </trkpt>
      <trkpt lat="44.21322" lon="6.08447">
        <ele>688.92</ele>
        <time>2013-07-30T09:45:37Z</time>
      </trkpt>
      <trkpt lat="44.21315" lon="6.08445">
        <ele>692.29</ele>
        <time>2013-07-30T09:45:54Z</time>
      </trkpt>
      <trkpt lat="44.21304" lon="6.0844">
        <ele>695.17</ele>
        <time>2013-07-30T09:46:11Z</time>
      </trkpt>
      <trkpt lat="44.21291" lon="6.08432">
        <ele>697.57</ele>
        <time>2013-07-30T09:46:22Z</time>
      </trkpt>
      <trkpt lat="44.2128" lon="6.08422">
        <ele>699.98</ele>
        <time>2013-07-30T09:46:41Z</time>
      </trkpt>
      <trkpt lat="44.21274" lon="6.08403">
        <ele>702.38</ele>
        <time>2013-07-30T09:46:58Z</time>
      </trkpt>
      <trkpt lat="44.2127" lon="6.0839">
        <ele>706.23</ele>
        <time>2013-07-30T09:47:12Z</time>
      </trkpt>
      <trkpt lat="44.2127" lon="6.08381">
        <ele>708.63</ele>
        <time>2013-07-30T09:47:29Z</time>
      </trkpt>
      <trkpt lat="44.21265" lon="6.08371">
        <ele>709.59</ele>
        <time>2013-07-30T09:47:43Z</time>
      </trkpt>
      <trkpt lat="44.21263" lon="6.08356">
        <ele>712.95</ele>
        <time>2013-07-30T09:47:58Z</time>
      </trkpt>
      <trkpt lat="44.21251" lon="6.08338">
        <ele>714.4</ele>
        <time>2013-07-30T09:48:14Z</time>
      </trkpt>
      <trkpt lat="44.21242" lon="6.08327">
        <ele>715.84</ele>
        <time>2013-07-30T09:48:24Z</time>
      </trkpt>
      <trkpt lat="44.21238" lon="6.08308">
        <ele>716.32</ele>
        <time>2013-07-30T09:48:40Z</time>
      </trkpt>
      <trkpt lat="44.21247" lon="6.08297">
        <ele>717.76</ele>
        <time>2013-07-30T09:48:56Z</time>
      </trkpt>
      <trkpt lat="44.21259" lon="6.08292">
        <ele>719.68</ele>
        <time>2013-07-30T09:49:12Z</time>
      </trkpt>
      <trkpt lat="44.2125" lon="6.08281">
        <ele>721.61</ele>
        <time>2013-07-30T09:49:27Z</time>
      </trkpt>
      <trkpt lat="44.21247" lon="6.08274">
        <ele>723.53</ele>
        <time>2013-07-30T09:49:39Z</time>
      </trkpt>
      <trkpt lat="44.21246" lon="6.08269">
        <ele>724.49</ele>
        <time>2013-07-30T09:49:55Z</time>
      </trkpt>
      <trkpt lat="44.21248" lon="6.08269">
        <ele>725.45</ele>
        <time>2013-07-30T09:49:57Z</time>
      </trkpt>
      <trkpt lat="44.21252" lon="6.08271">
        <ele>727.86</ele>
        <time>2013-07-30T09:50:13Z</time>
      </trkpt>
      <trkpt lat="44.21261" lon="6.08277">
        <ele>728.82</ele>
        <time>2013-07-30T09:50:30Z</time>
      </trkpt>
      <trkpt lat="44.21267" lon="6.08279">
        <ele>731.7</ele>
        <time>2013-07-30T09:50:41Z</time>
      </trkpt>
      <trkpt lat="44.21276" lon="6.08281">
        <ele>731.7</ele>
        <time>2013-07-30T09:50:54Z</time>
      </trkpt>
      <trkpt lat="44.21279" lon="6.08278">
        <ele>732.66</ele>
        <time>2013-07-30T09:51:09Z</time>
      </trkpt>
      <trkpt lat="44.21289" lon="6.08296">
        <ele>734.1</ele>
        <time>2013-07-30T09:51:25Z</time>
      </trkpt>
      <trkpt lat="44.21293" lon="6.08293">
        <ele>736.03</ele>
        <time>2013-07-30T09:51:43Z</time>
      </trkpt>
      <trkpt lat="44.21292" lon="6.08292">
        <ele>738.43</ele>
        <time>2013-07-30T09:52:05Z</time>
      </trkpt>
      <trkpt lat="44.21286" lon="6.08277">
        <ele>740.83</ele>
        <time>2013-07-30T09:52:21Z</time>
      </trkpt>
      <trkpt lat="44.21285" lon="6.08273">
        <ele>741.79</ele>
        <time>2013-07-30T09:52:25Z</time>
      </trkpt>
      <trkpt lat="44.2128" lon="6.08261">
        <ele>745.16</ele>
        <time>2013-07-30T09:52:44Z</time>
      </trkpt>
      <trkpt lat="44.21271" lon="6.08251">
        <ele>747.56</ele>
        <time>2013-07-30T09:53:01Z</time>
      </trkpt>
      <trkpt lat="44.2126" lon="6.08234">
        <ele>750.93</ele>
        <time>2013-07-30T09:53:18Z</time>
      </trkpt>
      <trkpt lat="44.21253" lon="6.08226">
        <ele>752.85</ele>
        <time>2013-07-30T09:53:34Z</time>
      </trkpt>
      <trkpt lat="44.21238" lon="6.08208">
        <ele>756.21</ele>
        <time>2013-07-30T09:53:51Z</time>
      </trkpt>
      <trkpt lat="44.21234" lon="6.08195">
        <ele>759.1</ele>
        <time>2013-07-30T09:54:04Z</time>
      </trkpt>
      <trkpt lat="44.21229" lon="6.08187">
        <ele>761.98</ele>
        <time>2013-07-30T09:54:16Z</time>
      </trkpt>
      <trkpt lat="44.21226" lon="6.08178">
        <ele>763.42</ele>
        <time>2013-07-30T09:54:31Z</time>
      </trkpt>
      <trkpt lat="44.2122" lon="6.08165">
        <ele>764.87</ele>
        <time>2013-07-30T09:54:53Z</time>
      </trkpt>
      <trkpt lat="44.21216" lon="6.08161">
        <ele>768.23</ele>
        <time>2013-07-30T09:55:02Z</time>
      </trkpt>
      <trkpt lat="44.21208" lon="6.08152">
        <ele>769.67</ele>
        <time>2013-07-30T09:55:17Z</time>
      </trkpt>
      <trkpt lat="44.21206" lon="6.08145">
        <ele>773.04</ele>
        <time>2013-07-30T09:55:28Z</time>
      </trkpt>
      <trkpt lat="44.21204" lon="6.08135">
        <ele>774.48</ele>
        <time>2013-07-30T09:55:44Z</time>
      </trkpt>
      <trkpt lat="44.21202" lon="6.08128">
        <ele>777.36</ele>
        <time>2013-07-30T09:55:53Z</time>
      </trkpt>
      <trkpt lat="44.21201" lon="6.08126">
        <ele>778.32</ele>
        <time>2013-07-30T09:55:55Z</time>
      </trkpt>
      <trkpt lat="44.21193" lon="6.08116">
        <ele>781.21</ele>
        <time>2013-07-30T09:56:11Z</time>
      </trkpt>
      <trkpt lat="44.21191" lon="6.08107">
        <ele>785.53</ele>
        <time>2013-07-30T09:56:26Z</time>
      </trkpt>
      <trkpt lat="44.21183" lon="6.08096">
        <ele>786.02</ele>
        <time>2013-07-30T09:56:47Z</time>
      </trkpt>
      <trkpt lat="44.21175" lon="6.08089">
        <ele>787.46</ele>
        <time>2013-07-30T09:57:03Z</time>
      </trkpt>
      <trkpt lat="44.21165" lon="6.08079">
        <ele>787.94</ele>
        <time>2013-07-30T09:57:17Z</time>
      </trkpt>
      <trkpt lat="44.21157" lon="6.08062">
        <ele>790.82</ele>
        <time>2013-07-30T09:57:29Z</time>
      </trkpt>
      <trkpt lat="44.21156" lon="6.08057">
        <ele>793.71</ele>
        <time>2013-07-30T09:57:44Z</time>
      </trkpt>
      <trkpt lat="44.2115" lon="6.08047">
        <ele>797.07</ele>
        <time>2013-07-30T09:57:58Z</time>
      </trkpt>
      <trkpt lat="44.21149" lon="6.08037">
        <ele>800.44</ele>
        <time>2013-07-30T09:58:14Z</time>
      </trkpt>
      <trkpt lat="44.21149" lon="6.08036">
        <ele>800.44</ele>
        <time>2013-07-30T09:58:15Z</time>
      </trkpt>
      <trkpt lat="44.21141" lon="6.08024">
        <ele>803.8</ele>
        <time>2013-07-30T09:58:29Z</time>
      </trkpt>
      <trkpt lat="44.21129" lon="6.08014">
        <ele>803.8</ele>
        <time>2013-07-30T09:58:43Z</time>
      </trkpt>
      <trkpt lat="44.21125" lon="6.08014">
        <ele>804.28</ele>
        <time>2013-07-30T09:58:57Z</time>
      </trkpt>
      <trkpt lat="44.2112" lon="6.08003">
        <ele>804.28</ele>
        <time>2013-07-30T09:59:18Z</time>
      </trkpt>
      <trkpt lat="44.21123" lon="6.08008">
        <ele>804.76</ele>
        <time>2013-07-30T09:59:41Z</time>
      </trkpt>
      <trkpt lat="44.21125" lon="6.08013">
        <ele>805.72</ele>
        <time>2013-07-30T09:59:58Z</time>
      </trkpt>
      <trkpt lat="44.21124" lon="6.08015">
        <ele>806.68</ele>
        <time>2013-07-30T10:00:22Z</time>
      </trkpt>
      <trkpt lat="44.21121" lon="6.0801">
        <ele>806.68</ele>
        <time>2013-07-30T10:00:38Z</time>
      </trkpt>
      <trkpt lat="44.2112" lon="6.08009">
        <ele>807.64</ele>
        <time>2013-07-30T10:01:02Z</time>
      </trkpt>
      <trkpt lat="44.21123" lon="6.08013">
        <ele>808.61</ele>
        <time>2013-07-30T10:01:25Z</time>
      </trkpt>
      <trkpt lat="44.21121" lon="6.08016">
        <ele>809.57</ele>
        <time>2013-07-30T10:01:42Z</time>
      </trkpt>
      <trkpt lat="44.21115" lon="6.08013">
        <ele>809.09</ele>
        <time>2013-07-30T10:02:00Z</time>
      </trkpt>
      <trkpt lat="44.21109" lon="6.08021">
        <ele>808.61</ele>
        <time>2013-07-30T10:02:10Z</time>
      </trkpt>
      <trkpt lat="44.21102" lon="6.08034">
        <ele>808.61</ele>
        <time>2013-07-30T10:02:23Z</time>
      </trkpt>
      <trkpt lat="44.21095" lon="6.0805">
        <ele>809.09</ele>
        <time>2013-07-30T10:02:37Z</time>
      </trkpt>
      <trkpt lat="44.21097" lon="6.08052">
        <ele>809.09</ele>
        <time>2013-07-30T10:02:51Z</time>
      </trkpt>
      <trkpt lat="44.21102" lon="6.0805">
        <ele>808.61</ele>
        <time>2013-07-30T10:03:03Z</time>
      </trkpt>
      <trkpt lat="44.21102" lon="6.08069">
        <ele>809.09</ele>
        <time>2013-07-30T10:03:20Z</time>
      </trkpt>
      <trkpt lat="44.21102" lon="6.08083">
        <ele>807.64</ele>
        <time>2013-07-30T10:03:40Z</time>
      </trkpt>
      <trkpt lat="44.21102" lon="6.0809">
        <ele>807.16</ele>
        <time>2013-07-30T10:03:57Z</time>
      </trkpt>
      <trkpt lat="44.21101" lon="6.08095">
        <ele>808.61</ele>
        <time>2013-07-30T10:04:14Z</time>
      </trkpt>
      <trkpt lat="44.21099" lon="6.08101">
        <ele>810.53</ele>
        <time>2013-07-30T10:04:33Z</time>
      </trkpt>
      <trkpt lat="44.21097" lon="6.08094">
        <ele>811.01</ele>
        <time>2013-07-30T10:04:51Z</time>
      </trkpt>
      <trkpt lat="44.21094" lon="6.08089">
        <ele>811.01</ele>
        <time>2013-07-30T10:05:09Z</time>
      </trkpt>
      <trkpt lat="44.21097" lon="6.08083">
        <ele>811.49</ele>
        <time>2013-07-30T10:05:29Z</time>
      </trkpt>
      <trkpt lat="44.21104" lon="6.08079">
        <ele>811.01</ele>
        <time>2013-07-30T10:05:50Z</time>
      </trkpt>
      <trkpt lat="44.21109" lon="6.08082">
        <ele>811.49</ele>
        <time>2013-07-30T10:06:09Z</time>
      </trkpt>
      <trkpt lat="44.21115" lon="6.08083">
        <ele>811.97</ele>
        <time>2013-07-30T10:06:26Z</time>
      </trkpt>
      <trkpt lat="44.21094" lon="6.08083">
        <ele>811.49</ele>
        <time>2013-07-30T10:06:34Z</time>
      </trkpt>
      <trkpt lat="44.21094" lon="6.08082">
        <ele>811.97</ele>
        <time>2013-07-30T10:06:53Z</time>
      </trkpt>
      <trkpt lat="44.21098" lon="6.08085">
        <ele>811.97</ele>
        <time>2013-07-30T10:07:12Z</time>
      </trkpt>
      <trkpt lat="44.211" lon="6.08085">
        <ele>811.97</ele>
        <time>2013-07-30T10:07:41Z</time>
      </trkpt>
      <trkpt lat="44.21105" lon="6.08086">
        <ele>811.01</ele>
        <time>2013-07-30T10:07:58Z</time>
      </trkpt>
      <trkpt lat="44.21104" lon="6.08086">
        <ele>810.53</ele>
        <time>2013-07-30T10:08:20Z</time>
      </trkpt>
      <trkpt lat="44.21104" lon="6.08091">
        <ele>810.05</ele>
        <time>2013-07-30T10:08:35Z</time>
      </trkpt>
      <trkpt lat="44.21098" lon="6.08096">
        <ele>809.57</ele>
        <time>2013-07-30T10:08:50Z</time>
      </trkpt>
      <trkpt lat="44.21105" lon="6.08109">
        <ele>810.53</ele>
        <time>2013-07-30T10:09:13Z</time>
      </trkpt>
      <trkpt lat="44.2111" lon="6.08122">
        <ele>809.57</ele>
        <time>2013-07-30T10:09:34Z</time>
      </trkpt>
      <trkpt lat="44.21116" lon="6.0812">
        <ele>809.57</ele>
        <time>2013-07-30T10:09:50Z</time>
      </trkpt>
      <trkpt lat="44.21118" lon="6.08119">
        <ele>810.53</ele>
        <time>2013-07-30T10:10:06Z</time>
      </trkpt>
      <trkpt lat="44.21114" lon="6.08116">
        <ele>811.01</ele>
        <time>2013-07-30T10:10:15Z</time>
      </trkpt>
      <trkpt lat="44.21119" lon="6.08124">
        <ele>811.01</ele>
        <time>2013-07-30T10:10:36Z</time>
      </trkpt>
      <trkpt lat="44.21113" lon="6.08121">
        <ele>810.53</ele>
        <time>2013-07-30T10:10:51Z</time>
      </trkpt>
      <trkpt lat="44.21109" lon="6.08129">
        <ele>810.53</ele>
        <time>2013-07-30T10:11:10Z</time>
      </trkpt>
      <trkpt lat="44.21118" lon="6.0813">
        <ele>809.57</ele>
        <time>2013-07-30T10:11:27Z</time>
      </trkpt>
      <trkpt lat="44.21129" lon="6.08138">
        <ele>808.61</ele>
        <time>2013-07-30T10:11:44Z</time>
      </trkpt>
      <trkpt lat="44.21133" lon="6.0815">
        <ele>809.57</ele>
        <time>2013-07-30T10:12:03Z</time>
      </trkpt>
      <trkpt lat="44.21136" lon="6.08154">
        <ele>809.09</ele>
        <time>2013-07-30T10:12:20Z</time>
      </trkpt>
      <trkpt lat="44.21128" lon="6.08151">
        <ele>808.61</ele>
        <time>2013-07-30T10:12:39Z</time>
      </trkpt>
      <trkpt lat="44.21124" lon="6.08153">
        <ele>808.13</ele>
        <time>2013-07-30T10:12:54Z</time>
      </trkpt>
      <trkpt lat="44.21117" lon="6.08164">
        <ele>807.16</ele>
        <time>2013-07-30T10:13:12Z</time>
      </trkpt>
      <trkpt lat="44.21113" lon="6.08164">
        <ele>807.16</ele>
        <time>2013-07-30T10:13:28Z</time>
      </trkpt>
      <trkpt lat="44.21107" lon="6.08167">
        <ele>807.64</ele>
        <time>2013-07-30T10:13:48Z</time>
      </trkpt>
      <trkpt lat="44.21106" lon="6.08168">
        <ele>807.64</ele>
        <time>2013-07-30T10:14:13Z</time>
      </trkpt>
      <trkpt lat="44.21107" lon="6.0817">
        <ele>807.64</ele>
        <time>2013-07-30T10:14:37Z</time>
      </trkpt>
      <trkpt lat="44.21112" lon="6.08179">
        <ele>807.64</ele>
        <time>2013-07-30T10:15:05Z</time>
      </trkpt>
      <trkpt lat="44.21109" lon="6.08165">
        <ele>808.61</ele>
        <time>2013-07-30T10:15:26Z</time>
      </trkpt>
      <trkpt lat="44.21112" lon="6.08168">
        <ele>809.09</ele>
        <time>2013-07-30T10:15:43Z</time>
      </trkpt>
      <trkpt lat="44.21114" lon="6.08167">
        <ele>809.57</ele>
        <time>2013-07-30T10:16:03Z</time>
      </trkpt>
      <trkpt lat="44.21115" lon="6.08167">
        <ele>810.53</ele>
        <time>2013-07-30T10:16:30Z</time>
      </trkpt>
      <trkpt lat="44.21113" lon="6.08164">
        <ele>810.53</ele>
        <time>2013-07-30T10:16:41Z</time>
      </trkpt>
      <trkpt lat="44.2111" lon="6.08166">
        <ele>811.01</ele>
        <time>2013-07-30T10:17:03Z</time>
      </trkpt>
      <trkpt lat="44.21111" lon="6.08168">
        <ele>811.49</ele>
        <time>2013-07-30T10:17:24Z</time>
      </trkpt>
      <trkpt lat="44.2111" lon="6.08172">
        <ele>811.97</ele>
        <time>2013-07-30T10:17:42Z</time>
      </trkpt>
      <trkpt lat="44.21113" lon="6.08175">
        <ele>811.97</ele>
        <time>2013-07-30T10:18:02Z</time>
      </trkpt>
      <trkpt lat="44.21116" lon="6.0817">
        <ele>812.93</ele>
        <time>2013-07-30T10:18:24Z</time>
      </trkpt>
      <trkpt lat="44.21114" lon="6.08171">
        <ele>813.89</ele>
        <time>2013-07-30T10:18:49Z</time>
      </trkpt>
      <trkpt lat="44.21112" lon="6.08174">
        <ele>814.37</ele>
        <time>2013-07-30T10:19:05Z</time>
      </trkpt>
      <trkpt lat="44.21103" lon="6.08176">
        <ele>814.37</ele>
        <time>2013-07-30T10:19:18Z</time>
      </trkpt>
      <trkpt lat="44.21105" lon="6.0819">
        <ele>815.34</ele>
        <time>2013-07-30T10:19:32Z</time>
      </trkpt>
      <trkpt lat="44.21106" lon="6.08201">
        <ele>815.34</ele>
        <time>2013-07-30T10:19:47Z</time>
      </trkpt>
      <trkpt lat="44.21103" lon="6.08222">
        <ele>816.78</ele>
        <time>2013-07-30T10:20:04Z</time>
      </trkpt>
      <trkpt lat="44.21101" lon="6.08238">
        <ele>817.74</ele>
        <time>2013-07-30T10:20:20Z</time>
      </trkpt>
      <trkpt lat="44.21095" lon="6.08241">
        <ele>818.22</ele>
        <time>2013-07-30T10:20:31Z</time>
      </trkpt>
      <trkpt lat="44.21091" lon="6.0824">
        <ele>818.7</ele>
        <time>2013-07-30T10:20:46Z</time>
      </trkpt>
      <trkpt lat="44.21083" lon="6.08231">
        <ele>818.22</ele>
        <time>2013-07-30T10:20:59Z</time>
      </trkpt>
      <trkpt lat="44.21076" lon="6.0823">
        <ele>818.7</ele>
        <time>2013-07-30T10:21:13Z</time>
      </trkpt>
      <trkpt lat="44.2107" lon="6.08228">
        <ele>816.78</ele>
        <time>2013-07-30T10:21:21Z</time>
      </trkpt>
      <trkpt lat="44.21066" lon="6.08227">
        <ele>816.78</ele>
        <time>2013-07-30T10:21:26Z</time>
      </trkpt>
      <trkpt lat="44.2106" lon="6.08229">
        <ele>816.3</ele>
        <time>2013-07-30T10:21:38Z</time>
      </trkpt>
      <trkpt lat="44.2105" lon="6.08231">
        <ele>816.3</ele>
        <time>2013-07-30T10:21:53Z</time>
      </trkpt>
      <trkpt lat="44.21045" lon="6.08236">
        <ele>816.78</ele>
        <time>2013-07-30T10:22:02Z</time>
      </trkpt>
      <trkpt lat="44.21037" lon="6.08245">
        <ele>816.78</ele>
        <time>2013-07-30T10:22:13Z</time>
      </trkpt>
      <trkpt lat="44.21029" lon="6.08253">
        <ele>816.3</ele>
        <time>2013-07-30T10:22:25Z</time>
      </trkpt>
      <trkpt lat="44.21019" lon="6.0826">
        <ele>817.26</ele>
        <time>2013-07-30T10:22:38Z</time>
      </trkpt>
      <trkpt lat="44.21006" lon="6.08269">
        <ele>817.26</ele>
        <time>2013-07-30T10:22:54Z</time>
      </trkpt>
      <trkpt lat="44.21003" lon="6.08275">
        <ele>816.3</ele>
        <time>2013-07-30T10:23:07Z</time>
      </trkpt>
      <trkpt lat="44.21003" lon="6.08275">
        <ele>818.22</ele>
        <time>2013-07-30T10:23:10Z</time>
      </trkpt>
      <trkpt lat="44.21003" lon="6.08272">
        <ele>818.7</ele>
        <time>2013-07-30T10:23:25Z</time>
      </trkpt>
      <trkpt lat="44.20996" lon="6.08274">
        <ele>818.7</ele>
        <time>2013-07-30T10:23:44Z</time>
      </trkpt>
      <trkpt lat="44.2099" lon="6.08279">
        <ele>819.18</ele>
        <time>2013-07-30T10:23:54Z</time>
      </trkpt>
      <trkpt lat="44.20981" lon="6.08278">
        <ele>820.62</ele>
        <time>2013-07-30T10:24:07Z</time>
      </trkpt>
      <trkpt lat="44.20977" lon="6.08284">
        <ele>821.58</ele>
        <time>2013-07-30T10:24:19Z</time>
      </trkpt>
      <trkpt lat="44.20973" lon="6.08289">
        <ele>823.51</ele>
        <time>2013-07-30T10:24:29Z</time>
      </trkpt>
      <trkpt lat="44.20968" lon="6.08292">
        <ele>824.47</ele>
        <time>2013-07-30T10:24:39Z</time>
      </trkpt>
      <trkpt lat="44.2096" lon="6.08293">
        <ele>825.91</ele>
        <time>2013-07-30T10:24:52Z</time>
      </trkpt>
      <trkpt lat="44.20961" lon="6.08294">
        <ele>825.91</ele>
        <time>2013-07-30T10:25:07Z</time>
      </trkpt>
      <trkpt lat="44.20964" lon="6.08295">
        <ele>826.39</ele>
        <time>2013-07-30T10:25:32Z</time>
      </trkpt>
      <trkpt lat="44.20964" lon="6.08292">
        <ele>826.87</ele>
        <time>2013-07-30T10:25:51Z</time>
      </trkpt>
      <trkpt lat="44.20964" lon="6.08294">
        <ele>826.87</ele>
        <time>2013-07-30T10:26:10Z</time>
      </trkpt>
      <trkpt lat="44.20963" lon="6.08294">
        <ele>827.35</ele>
        <time>2013-07-30T10:26:34Z</time>
      </trkpt>
      <trkpt lat="44.20966" lon="6.08296">
        <ele>827.83</ele>
        <time>2013-07-30T10:26:53Z</time>
      </trkpt>
      <trkpt lat="44.20964" lon="6.08293">
        <ele>827.83</ele>
        <time>2013-07-30T10:27:16Z</time>
      </trkpt>
      <trkpt lat="44.20965" lon="6.08301">
        <ele>828.79</ele>
        <time>2013-07-30T10:27:32Z</time>
      </trkpt>
      <trkpt lat="44.20963" lon="6.083">
        <ele>829.27</ele>
        <time>2013-07-30T10:27:59Z</time>
      </trkpt>
      <trkpt lat="44.20964" lon="6.08301">
        <ele>829.27</ele>
        <time>2013-07-30T10:28:18Z</time>
      </trkpt>
      <trkpt lat="44.20964" lon="6.083">
        <ele>829.76</ele>
        <time>2013-07-30T10:28:46Z</time>
      </trkpt>
      <trkpt lat="44.20962" lon="6.08297">
        <ele>830.24</ele>
        <time>2013-07-30T10:29:17Z</time>
      </trkpt>
      <trkpt lat="44.20967" lon="6.08297">
        <ele>830.72</ele>
        <time>2013-07-30T10:29:48Z</time>
      </trkpt>
      <trkpt lat="44.20966" lon="6.08297">
        <ele>830.72</ele>
        <time>2013-07-30T10:30:15Z</time>
      </trkpt>
      <trkpt lat="44.20965" lon="6.08297">
        <ele>831.2</ele>
        <time>2013-07-30T10:30:37Z</time>
      </trkpt>
      <trkpt lat="44.20964" lon="6.08297">
        <ele>831.2</ele>
        <time>2013-07-30T10:30:56Z</time>
      </trkpt>
      <trkpt lat="44.20968" lon="6.08295">
        <ele>831.2</ele>
        <time>2013-07-30T10:31:05Z</time>
      </trkpt>
      <trkpt lat="44.20972" lon="6.08293">
        <ele>830.24</ele>
        <time>2013-07-30T10:31:16Z</time>
      </trkpt>
      <trkpt lat="44.20977" lon="6.08289">
        <ele>829.76</ele>
        <time>2013-07-30T10:31:25Z</time>
      </trkpt>
      <trkpt lat="44.20978" lon="6.08286">
        <ele>828.31</ele>
        <time>2013-07-30T10:31:29Z</time>
      </trkpt>
      <trkpt lat="44.20986" lon="6.08279">
        <ele>826.39</ele>
        <time>2013-07-30T10:31:40Z</time>
      </trkpt>
      <trkpt lat="44.20996" lon="6.08271">
        <ele>826.39</ele>
        <time>2013-07-30T10:31:52Z</time>
      </trkpt>
      <trkpt lat="44.21007" lon="6.08268">
        <ele>826.39</ele>
        <time>2013-07-30T10:32:02Z</time>
      </trkpt>
      <trkpt lat="44.21017" lon="6.08262">
        <ele>827.35</ele>
        <time>2013-07-30T10:32:12Z</time>
      </trkpt>
      <trkpt lat="44.2102" lon="6.0826">
        <ele>827.35</ele>
        <time>2013-07-30T10:32:14Z</time>
      </trkpt>
      <trkpt lat="44.21038" lon="6.08246">
        <ele>826.39</ele>
        <time>2013-07-30T10:32:30Z</time>
      </trkpt>
      <trkpt lat="44.21053" lon="6.08232">
        <ele>827.35</ele>
        <time>2013-07-30T10:32:44Z</time>
      </trkpt>
      <trkpt lat="44.21062" lon="6.08225">
        <ele>827.83</ele>
        <time>2013-07-30T10:32:53Z</time>
      </trkpt>
      <trkpt lat="44.21069" lon="6.08228">
        <ele>828.31</ele>
        <time>2013-07-30T10:32:59Z</time>
      </trkpt>
      <trkpt lat="44.21072" lon="6.0823">
        <ele>828.79</ele>
        <time>2013-07-30T10:33:02Z</time>
      </trkpt>
      <trkpt lat="44.21084" lon="6.08234">
        <ele>830.24</ele>
        <time>2013-07-30T10:33:13Z</time>
      </trkpt>
      <trkpt lat="44.21089" lon="6.08242">
        <ele>831.2</ele>
        <time>2013-07-30T10:33:20Z</time>
      </trkpt>
      <trkpt lat="44.21092" lon="6.08243">
        <ele>831.2</ele>
        <time>2013-07-30T10:33:23Z</time>
      </trkpt>
      <trkpt lat="44.21097" lon="6.08241">
        <ele>831.68</ele>
        <time>2013-07-30T10:33:27Z</time>
      </trkpt>
      <trkpt lat="44.21103" lon="6.08239">
        <ele>830.72</ele>
        <time>2013-07-30T10:33:38Z</time>
      </trkpt>
      <trkpt lat="44.211" lon="6.08221">
        <ele>830.72</ele>
        <time>2013-07-30T10:33:51Z</time>
      </trkpt>
      <trkpt lat="44.21103" lon="6.0821">
        <ele>830.24</ele>
        <time>2013-07-30T10:34:00Z</time>
      </trkpt>
      <trkpt lat="44.21108" lon="6.08189">
        <ele>829.76</ele>
        <time>2013-07-30T10:34:13Z</time>
      </trkpt>
      <trkpt lat="44.21106" lon="6.08171">
        <ele>831.2</ele>
        <time>2013-07-30T10:34:26Z</time>
      </trkpt>
      <trkpt lat="44.21114" lon="6.08168">
        <ele>830.24</ele>
        <time>2013-07-30T10:34:39Z</time>
      </trkpt>
      <trkpt lat="44.21126" lon="6.08153">
        <ele>832.64</ele>
        <time>2013-07-30T10:34:52Z</time>
      </trkpt>
      <trkpt lat="44.2113" lon="6.08143">
        <ele>832.16</ele>
        <time>2013-07-30T10:35:04Z</time>
      </trkpt>
      <trkpt lat="44.21127" lon="6.08127">
        <ele>833.6</ele>
        <time>2013-07-30T10:35:18Z</time>
      </trkpt>
      <trkpt lat="44.21115" lon="6.0811">
        <ele>836.48</ele>
        <time>2013-07-30T10:35:34Z</time>
      </trkpt>
      <trkpt lat="44.21106" lon="6.08101">
        <ele>836.48</ele>
        <time>2013-07-30T10:35:49Z</time>
      </trkpt>
      <trkpt lat="44.21109" lon="6.08088">
        <ele>838.41</ele>
        <time>2013-07-30T10:36:06Z</time>
      </trkpt>
      <trkpt lat="44.21108" lon="6.08081">
        <ele>838.89</ele>
        <time>2013-07-30T10:36:26Z</time>
      </trkpt>
      <trkpt lat="44.21107" lon="6.08065">
        <ele>841.77</ele>
        <time>2013-07-30T10:36:41Z</time>
      </trkpt>
      <trkpt lat="44.21106" lon="6.08064">
        <ele>841.77</ele>
        <time>2013-07-30T10:36:53Z</time>
      </trkpt>
      <trkpt lat="44.21109" lon="6.08083">
        <ele>838.41</ele>
        <time>2013-07-30T10:37:09Z</time>
      </trkpt>
      <trkpt lat="44.21105" lon="6.08101">
        <ele>837.93</ele>
        <time>2013-07-30T10:37:23Z</time>
      </trkpt>
      <trkpt lat="44.21109" lon="6.08105">
        <ele>836.96</ele>
        <time>2013-07-30T10:37:29Z</time>
      </trkpt>
      <trkpt lat="44.21119" lon="6.08121">
        <ele>836.48</ele>
        <time>2013-07-30T10:37:44Z</time>
      </trkpt>
      <trkpt lat="44.21127" lon="6.08131">
        <ele>835.52</ele>
        <time>2013-07-30T10:37:57Z</time>
      </trkpt>
      <trkpt lat="44.21128" lon="6.08136">
        <ele>835.52</ele>
        <time>2013-07-30T10:38:18Z</time>
      </trkpt>
      <trkpt lat="44.21126" lon="6.08142">
        <ele>836</ele>
        <time>2013-07-30T10:38:43Z</time>
      </trkpt>
      <trkpt lat="44.21127" lon="6.08141">
        <ele>836.48</ele>
        <time>2013-07-30T10:39:01Z</time>
      </trkpt>
      <trkpt lat="44.21129" lon="6.08135">
        <ele>836.48</ele>
        <time>2013-07-30T10:39:24Z</time>
      </trkpt>
      <trkpt lat="44.21125" lon="6.08144">
        <ele>836.48</ele>
        <time>2013-07-30T10:39:33Z</time>
      </trkpt>
      <trkpt lat="44.21121" lon="6.08152">
        <ele>836</ele>
        <time>2013-07-30T10:39:42Z</time>
      </trkpt>
      <trkpt lat="44.21118" lon="6.0816">
        <ele>835.04</ele>
        <time>2013-07-30T10:39:50Z</time>
      </trkpt>
      <trkpt lat="44.21113" lon="6.08168">
        <ele>835.52</ele>
        <time>2013-07-30T10:40:01Z</time>
      </trkpt>
      <trkpt lat="44.21107" lon="6.08172">
        <ele>835.52</ele>
        <time>2013-07-30T10:40:12Z</time>
      </trkpt>
      <trkpt lat="44.21106" lon="6.08172">
        <ele>835.52</ele>
        <time>2013-07-30T10:40:21Z</time>
      </trkpt>
      <trkpt lat="44.21105" lon="6.08176">
        <ele>835.52</ele>
        <time>2013-07-30T10:40:25Z</time>
      </trkpt>
      <trkpt lat="44.21107" lon="6.08189">
        <ele>835.52</ele>
        <time>2013-07-30T10:40:35Z</time>
      </trkpt>
      <trkpt lat="44.21109" lon="6.08195">
        <ele>835.52</ele>
        <time>2013-07-30T10:40:44Z</time>
      </trkpt>
      <trkpt lat="44.21106" lon="6.082">
        <ele>836</ele>
        <time>2013-07-30T10:41:04Z</time>
      </trkpt>
      <trkpt lat="44.21106" lon="6.08202">
        <ele>836.48</ele>
        <time>2013-07-30T10:41:29Z</time>
      </trkpt>
      <trkpt lat="44.21106" lon="6.08202">
        <ele>836.96</ele>
        <time>2013-07-30T10:41:51Z</time>
      </trkpt>
      <trkpt lat="44.21109" lon="6.0821">
        <ele>837.45</ele>
        <time>2013-07-30T10:42:12Z</time>
      </trkpt>
      <trkpt lat="44.21109" lon="6.08214">
        <ele>837.45</ele>
        <time>2013-07-30T10:42:32Z</time>
      </trkpt>
      <trkpt lat="44.21105" lon="6.08197">
        <ele>837.45</ele>
        <time>2013-07-30T10:42:46Z</time>
      </trkpt>
      <trkpt lat="44.21104" lon="6.08188">
        <ele>837.45</ele>
        <time>2013-07-30T10:43:03Z</time>
      </trkpt>
      <trkpt lat="44.21105" lon="6.08189">
        <ele>837.45</ele>
        <time>2013-07-30T10:43:26Z</time>
      </trkpt>
      <trkpt lat="44.21105" lon="6.08181">
        <ele>838.41</ele>
        <time>2013-07-30T10:43:35Z</time>
      </trkpt>
      <trkpt lat="44.2111" lon="6.08168">
        <ele>838.89</ele>
        <time>2013-07-30T10:43:50Z</time>
      </trkpt>
      <trkpt lat="44.21114" lon="6.08169">
        <ele>838.89</ele>
        <time>2013-07-30T10:44:07Z</time>
      </trkpt>
      <trkpt lat="44.21112" lon="6.0817">
        <ele>839.37</ele>
        <time>2013-07-30T10:44:30Z</time>
      </trkpt>
      <trkpt lat="44.21114" lon="6.08167">
        <ele>840.33</ele>
        <time>2013-07-30T10:44:57Z</time>
      </trkpt>
      <trkpt lat="44.21114" lon="6.08168">
        <ele>840.33</ele>
        <time>2013-07-30T10:45:27Z</time>
      </trkpt>
      <trkpt lat="44.21116" lon="6.08167">
        <ele>840.33</ele>
        <time>2013-07-30T10:45:48Z</time>
      </trkpt>
      <trkpt lat="44.21121" lon="6.08163">
        <ele>839.85</ele>
        <time>2013-07-30T10:46:05Z</time>
      </trkpt>
      <trkpt lat="44.21121" lon="6.08154">
        <ele>843.21</ele>
        <time>2013-07-30T10:46:13Z</time>
      </trkpt>
      <trkpt lat="44.21121" lon="6.08152">
        <ele>841.77</ele>
        <time>2013-07-30T10:46:14Z</time>
      </trkpt>
      <trkpt lat="44.21123" lon="6.0814">
        <ele>842.25</ele>
        <time>2013-07-30T10:46:28Z</time>
      </trkpt>
      <trkpt lat="44.21123" lon="6.08125">
        <ele>842.73</ele>
        <time>2013-07-30T10:46:43Z</time>
      </trkpt>
      <trkpt lat="44.21115" lon="6.08108">
        <ele>844.18</ele>
        <time>2013-07-30T10:46:59Z</time>
      </trkpt>
      <trkpt lat="44.21106" lon="6.08091">
        <ele>846.1</ele>
        <time>2013-07-30T10:47:17Z</time>
      </trkpt>
      <trkpt lat="44.21106" lon="6.08079">
        <ele>849.46</ele>
        <time>2013-07-30T10:47:27Z</time>
      </trkpt>
      <trkpt lat="44.21106" lon="6.08055">
        <ele>850.42</ele>
        <time>2013-07-30T10:47:40Z</time>
      </trkpt>
      <trkpt lat="44.21102" lon="6.08041">
        <ele>849.46</ele>
        <time>2013-07-30T10:47:50Z</time>
      </trkpt>
      <trkpt lat="44.21109" lon="6.08027">
        <ele>849.46</ele>
        <time>2013-07-30T10:47:59Z</time>
      </trkpt>
      <trkpt lat="44.21121" lon="6.08012">
        <ele>852.35</ele>
        <time>2013-07-30T10:48:14Z</time>
      </trkpt>
      <trkpt lat="44.21122" lon="6.08011">
        <ele>852.35</ele>
        <time>2013-07-30T10:48:32Z</time>
      </trkpt>
      <trkpt lat="44.21121" lon="6.08014">
        <ele>852.35</ele>
        <time>2013-07-30T10:48:52Z</time>
      </trkpt>
      <trkpt lat="44.21121" lon="6.08">
        <ele>852.35</ele>
        <time>2013-07-30T10:49:12Z</time>
      </trkpt>
      <trkpt lat="44.21121" lon="6.08001">
        <ele>852.83</ele>
        <time>2013-07-30T10:49:37Z</time>
      </trkpt>
      <trkpt lat="44.2112" lon="6.08005">
        <ele>852.83</ele>
        <time>2013-07-30T10:49:59Z</time>
      </trkpt>
      <trkpt lat="44.21121" lon="6.08005">
        <ele>853.79</ele>
        <time>2013-07-30T10:50:23Z</time>
      </trkpt>
      <trkpt lat="44.21122" lon="6.08002">
        <ele>853.79</ele>
        <time>2013-07-30T10:50:51Z</time>
      </trkpt>
      <trkpt lat="44.21122" lon="6.0801">
        <ele>854.27</ele>
        <time>2013-07-30T10:51:17Z</time>
      </trkpt>
      <trkpt lat="44.21125" lon="6.08013">
        <ele>854.75</ele>
        <time>2013-07-30T10:51:45Z</time>
      </trkpt>
      <trkpt lat="44.21124" lon="6.08004">
        <ele>855.23</ele>
        <time>2013-07-30T10:52:03Z</time>
      </trkpt>
      <trkpt lat="44.2113" lon="6.08007">
        <ele>855.23</ele>
        <time>2013-07-30T10:52:22Z</time>
      </trkpt>
      <trkpt lat="44.21129" lon="6.08013">
        <ele>855.71</ele>
        <time>2013-07-30T10:52:44Z</time>
      </trkpt>
      <trkpt lat="44.21123" lon="6.08013">
        <ele>856.19</ele>
        <time>2013-07-30T10:53:07Z</time>
      </trkpt>
      <trkpt lat="44.21124" lon="6.08007">
        <ele>856.19</ele>
        <time>2013-07-30T10:53:37Z</time>
      </trkpt>
      <trkpt lat="44.21134" lon="6.08003">
        <ele>856.67</ele>
        <time>2013-07-30T10:53:56Z</time>
      </trkpt>
      <trkpt lat="44.21136" lon="6.07999">
        <ele>857.15</ele>
        <time>2013-07-30T10:54:18Z</time>
      </trkpt>
      <trkpt lat="44.21128" lon="6.08003">
        <ele>857.15</ele>
        <time>2013-07-30T10:54:38Z</time>
      </trkpt>
      <trkpt lat="44.21121" lon="6.08008">
        <ele>857.15</ele>
        <time>2013-07-30T10:54:54Z</time>
      </trkpt>
      <trkpt lat="44.21126" lon="6.07997">
        <ele>857.63</ele>
        <time>2013-07-30T10:55:19Z</time>
      </trkpt>
      <trkpt lat="44.21121" lon="6.08005">
        <ele>858.11</ele>
        <time>2013-07-30T10:55:39Z</time>
      </trkpt>
      <trkpt lat="44.21123" lon="6.08002">
        <ele>858.11</ele>
        <time>2013-07-30T10:56:06Z</time>
      </trkpt>
      <trkpt lat="44.21122" lon="6.08005">
        <ele>858.59</ele>
        <time>2013-07-30T10:56:33Z</time>
      </trkpt>
      <trkpt lat="44.21118" lon="6.08004">
        <ele>858.59</ele>
        <time>2013-07-30T10:57:00Z</time>
      </trkpt>
      <trkpt lat="44.21117" lon="6.08003">
        <ele>859.08</ele>
        <time>2013-07-30T10:57:21Z</time>
      </trkpt>
      <trkpt lat="44.21122" lon="6.08004">
        <ele>859.56</ele>
        <time>2013-07-30T10:57:41Z</time>
      </trkpt>
      <trkpt lat="44.21119" lon="6.0801">
        <ele>860.04</ele>
        <time>2013-07-30T10:58:03Z</time>
      </trkpt>
      <trkpt lat="44.21117" lon="6.08008">
        <ele>860.52</ele>
        <time>2013-07-30T10:58:28Z</time>
      </trkpt>
      <trkpt lat="44.21118" lon="6.08002">
        <ele>861</ele>
        <time>2013-07-30T10:58:48Z</time>
      </trkpt>
      <trkpt lat="44.21123" lon="6.08006">
        <ele>861</ele>
        <time>2013-07-30T10:59:14Z</time>
      </trkpt>
      <trkpt lat="44.2112" lon="6.0801">
        <ele>861</ele>
        <time>2013-07-30T10:59:40Z</time>
      </trkpt>
      <trkpt lat="44.21123" lon="6.08011">
        <ele>861.48</ele>
        <time>2013-07-30T11:00:03Z</time>
      </trkpt>
      <trkpt lat="44.21121" lon="6.08012">
        <ele>861.96</ele>
        <time>2013-07-30T11:00:23Z</time>
      </trkpt>
      <trkpt lat="44.21126" lon="6.08012">
        <ele>861.96</ele>
        <time>2013-07-30T11:00:43Z</time>
      </trkpt>
      <trkpt lat="44.21129" lon="6.08013">
        <ele>862.44</ele>
        <time>2013-07-30T11:00:49Z</time>
      </trkpt>
      <trkpt lat="44.21125" lon="6.08011">
        <ele>861.96</ele>
        <time>2013-07-30T11:01:15Z</time>
      </trkpt>
      <trkpt lat="44.21116" lon="6.08011">
        <ele>861.96</ele>
        <time>2013-07-30T11:01:28Z</time>
      </trkpt>
      <trkpt lat="44.21122" lon="6.08004">
        <ele>861.96</ele>
        <time>2013-07-30T11:01:45Z</time>
      </trkpt>
      <trkpt lat="44.21119" lon="6.08003">
        <ele>862.44</ele>
        <time>2013-07-30T11:02:16Z</time>
      </trkpt>
      <trkpt lat="44.21118" lon="6.08009">
        <ele>862.44</ele>
        <time>2013-07-30T11:02:37Z</time>
      </trkpt>
      <trkpt lat="44.21111" lon="6.08013">
        <ele>862.92</ele>
        <time>2013-07-30T11:02:57Z</time>
      </trkpt>
      <trkpt lat="44.21117" lon="6.0801">
        <ele>863.4</ele>
        <time>2013-07-30T11:03:24Z</time>
      </trkpt>
      <trkpt lat="44.21117" lon="6.08014">
        <ele>863.88</ele>
        <time>2013-07-30T11:03:53Z</time>
      </trkpt>
      <trkpt lat="44.21115" lon="6.08007">
        <ele>864.36</ele>
        <time>2013-07-30T11:04:18Z</time>
      </trkpt>
      <trkpt lat="44.21118" lon="6.08006">
        <ele>864.84</ele>
        <time>2013-07-30T11:04:43Z</time>
      </trkpt>
      <trkpt lat="44.21122" lon="6.08002">
        <ele>865.32</ele>
        <time>2013-07-30T11:05:11Z</time>
      </trkpt>
      <trkpt lat="44.21117" lon="6.08009">
        <ele>864.84</ele>
        <time>2013-07-30T11:05:34Z</time>
      </trkpt>
      <trkpt lat="44.21115" lon="6.08002">
        <ele>865.32</ele>
        <time>2013-07-30T11:05:53Z</time>
      </trkpt>
      <trkpt lat="44.21115" lon="6.08003">
        <ele>865.32</ele>
        <time>2013-07-30T11:06:11Z</time>
      </trkpt>
      <trkpt lat="44.21116" lon="6.08002">
        <ele>865.8</ele>
        <time>2013-07-30T11:06:36Z</time>
      </trkpt>
      <trkpt lat="44.21117" lon="6.08003">
        <ele>865.8</ele>
        <time>2013-07-30T11:07:00Z</time>
      </trkpt>
      <trkpt lat="44.21121" lon="6.08008">
        <ele>865.8</ele>
        <time>2013-07-30T11:07:25Z</time>
      </trkpt>
      <trkpt lat="44.21111" lon="6.08013">
        <ele>866.29</ele>
        <time>2013-07-30T11:07:43Z</time>
      </trkpt>
      <trkpt lat="44.21107" lon="6.08016">
        <ele>866.29</ele>
        <time>2013-07-30T11:07:49Z</time>
      </trkpt>
      <trkpt lat="44.21089" lon="6.08016">
        <ele>866.29</ele>
        <time>2013-07-30T11:08:10Z</time>
      </trkpt>
      <trkpt lat="44.21087" lon="6.08019">
        <ele>866.29</ele>
        <time>2013-07-30T11:08:25Z</time>
      </trkpt>
      <trkpt lat="44.21097" lon="6.0801">
        <ele>866.29</ele>
        <time>2013-07-30T11:08:41Z</time>
      </trkpt>
      <trkpt lat="44.21119" lon="6.08001">
        <ele>865.8</ele>
        <time>2013-07-30T11:09:01Z</time>
      </trkpt>
      <trkpt lat="44.21114" lon="6.07998">
        <ele>866.29</ele>
        <time>2013-07-30T11:09:21Z</time>
      </trkpt>
      <trkpt lat="44.21115" lon="6.08">
        <ele>866.77</ele>
        <time>2013-07-30T11:09:48Z</time>
      </trkpt>
      <trkpt lat="44.2112" lon="6.07998">
        <ele>866.29</ele>
        <time>2013-07-30T11:10:12Z</time>
      </trkpt>
      <trkpt lat="44.21121" lon="6.07997">
        <ele>867.25</ele>
        <time>2013-07-30T11:10:13Z</time>
      </trkpt>
      <trkpt lat="44.21154" lon="6.07989">
        <ele>867.25</ele>
        <time>2013-07-30T11:10:32Z</time>
      </trkpt>
      <trkpt lat="44.21162" lon="6.07988">
        <ele>867.25</ele>
        <time>2013-07-30T11:10:36Z</time>
      </trkpt>
      <trkpt lat="44.21149" lon="6.07991">
        <ele>867.25</ele>
        <time>2013-07-30T11:10:48Z</time>
      </trkpt>
      <trkpt lat="44.21122" lon="6.07995">
        <ele>867.73</ele>
        <time>2013-07-30T11:11:12Z</time>
      </trkpt>
      <trkpt lat="44.21118" lon="6.07995">
        <ele>867.73</ele>
        <time>2013-07-30T11:11:35Z</time>
      </trkpt>
      <trkpt lat="44.21121" lon="6.07994">
        <ele>868.21</ele>
        <time>2013-07-30T11:12:01Z</time>
      </trkpt>
      <trkpt lat="44.21122" lon="6.07995">
        <ele>868.21</ele>
        <time>2013-07-30T11:12:24Z</time>
      </trkpt>
      <trkpt lat="44.21121" lon="6.07998">
        <ele>868.21</ele>
        <time>2013-07-30T11:12:47Z</time>
      </trkpt>
      <trkpt lat="44.21121" lon="6.0801">
        <ele>868.69</ele>
        <time>2013-07-30T11:13:09Z</time>
      </trkpt>
      <trkpt lat="44.21117" lon="6.08011">
        <ele>868.69</ele>
        <time>2013-07-30T11:13:25Z</time>
      </trkpt>
      <trkpt lat="44.21124" lon="6.08008">
        <ele>869.65</ele>
        <time>2013-07-30T11:13:45Z</time>
      </trkpt>
      <trkpt lat="44.21122" lon="6.07996">
        <ele>869.65</ele>
        <time>2013-07-30T11:14:03Z</time>
      </trkpt>
      <trkpt lat="44.21127" lon="6.08001">
        <ele>869.65</ele>
        <time>2013-07-30T11:14:20Z</time>
      </trkpt>
      <trkpt lat="44.21143" lon="6.07996">
        <ele>869.65</ele>
        <time>2013-07-30T11:14:40Z</time>
      </trkpt>
      <trkpt lat="44.21129" lon="6.08003">
        <ele>869.65</ele>
        <time>2013-07-30T11:14:57Z</time>
      </trkpt>
      <trkpt lat="44.21133" lon="6.08001">
        <ele>870.13</ele>
        <time>2013-07-30T11:15:13Z</time>
      </trkpt>
      <trkpt lat="44.21147" lon="6.07997">
        <ele>869.65</ele>
        <time>2013-07-30T11:15:33Z</time>
      </trkpt>
      <trkpt lat="44.21158" lon="6.08026">
        <ele>869.65</ele>
        <time>2013-07-30T11:16:03Z</time>
      </trkpt>
      <trkpt lat="44.21117" lon="6.08002">
        <ele>869.65</ele>
        <time>2013-07-30T11:16:42Z</time>
      </trkpt>
      <trkpt lat="44.2112" lon="6.07999">
        <ele>870.13</ele>
        <time>2013-07-30T11:17:03Z</time>
      </trkpt>
      <trkpt lat="44.21118" lon="6.07993">
        <ele>870.13</ele>
        <time>2013-07-30T11:17:23Z</time>
      </trkpt>
      <trkpt lat="44.2112" lon="6.07994">
        <ele>870.13</ele>
        <time>2013-07-30T11:17:44Z</time>
      </trkpt>
      <trkpt lat="44.21129" lon="6.08">
        <ele>870.13</ele>
        <time>2013-07-30T11:18:05Z</time>
      </trkpt>
      <trkpt lat="44.21129" lon="6.07999">
        <ele>870.13</ele>
        <time>2013-07-30T11:18:27Z</time>
      </trkpt>
      <trkpt lat="44.2113" lon="6.08002">
        <ele>870.13</ele>
        <time>2013-07-30T11:18:51Z</time>
      </trkpt>
      <trkpt lat="44.21129" lon="6.08003">
        <ele>870.13</ele>
        <time>2013-07-30T11:19:04Z</time>
      </trkpt>
      <trkpt lat="44.21129" lon="6.08005">
        <ele>870.13</ele>
        <time>2013-07-30T11:19:34Z</time>
      </trkpt>
      <trkpt lat="44.21123" lon="6.08006">
        <ele>870.13</ele>
        <time>2013-07-30T11:19:54Z</time>
      </trkpt>
      <trkpt lat="44.21119" lon="6.08009">
        <ele>870.13</ele>
        <time>2013-07-30T11:20:14Z</time>
      </trkpt>
      <trkpt lat="44.21123" lon="6.08012">
        <ele>870.13</ele>
        <time>2013-07-30T11:20:34Z</time>
      </trkpt>
      <trkpt lat="44.2112" lon="6.08007">
        <ele>870.13</ele>
        <time>2013-07-30T11:20:53Z</time>
      </trkpt>
      <trkpt lat="44.21125" lon="6.08008">
        <ele>870.61</ele>
        <time>2013-07-30T11:21:16Z</time>
      </trkpt>
      <trkpt lat="44.21121" lon="6.08011">
        <ele>870.61</ele>
        <time>2013-07-30T11:21:33Z</time>
      </trkpt>
      <trkpt lat="44.21118" lon="6.0801">
        <ele>870.61</ele>
        <time>2013-07-30T11:21:58Z</time>
      </trkpt>
      <trkpt lat="44.21124" lon="6.08009">
        <ele>870.61</ele>
        <time>2013-07-30T11:22:25Z</time>
      </trkpt>
      <trkpt lat="44.21119" lon="6.08004">
        <ele>870.61</ele>
        <time>2013-07-30T11:22:44Z</time>
      </trkpt>
      <trkpt lat="44.21118" lon="6.08007">
        <ele>869.65</ele>
        <time>2013-07-30T11:23:02Z</time>
      </trkpt>
      <trkpt lat="44.21118" lon="6.07995">
        <ele>870.13</ele>
        <time>2013-07-30T11:23:25Z</time>
      </trkpt>
      <trkpt lat="44.21121" lon="6.07995">
        <ele>870.13</ele>
        <time>2013-07-30T11:23:48Z</time>
      </trkpt>
      <trkpt lat="44.21121" lon="6.08003">
        <ele>870.13</ele>
        <time>2013-07-30T11:24:08Z</time>
      </trkpt>
      <trkpt lat="44.21123" lon="6.08007">
        <ele>870.61</ele>
        <time>2013-07-30T11:24:22Z</time>
      </trkpt>
      <trkpt lat="44.21122" lon="6.08008">
        <ele>870.61</ele>
        <time>2013-07-30T11:24:27Z</time>
      </trkpt>
      <trkpt lat="44.2112" lon="6.08008">
        <ele>870.61</ele>
        <time>2013-07-30T11:24:35Z</time>
      </trkpt>
      <trkpt lat="44.2112" lon="6.08008">
        <ele>870.61</ele>
        <time>2013-07-30T11:24:55Z</time>
      </trkpt>
      <trkpt lat="44.21122" lon="6.08015">
        <ele>870.61</ele>
        <time>2013-07-30T11:25:25Z</time>
      </trkpt>
      <trkpt lat="44.21121" lon="6.0801">
        <ele>871.09</ele>
        <time>2013-07-30T11:26:01Z</time>
      </trkpt>
      <trkpt lat="44.2112" lon="6.08011">
        <ele>871.09</ele>
        <time>2013-07-30T11:26:33Z</time>
      </trkpt>
      <trkpt lat="44.21119" lon="6.08013">
        <ele>871.09</ele>
        <time>2013-07-30T11:27:03Z</time>
      </trkpt>
      <trkpt lat="44.21122" lon="6.08008">
        <ele>870.61</ele>
        <time>2013-07-30T11:27:33Z</time>
      </trkpt>
      <trkpt lat="44.21123" lon="6.08008">
        <ele>871.09</ele>
        <time>2013-07-30T11:28:02Z</time>
      </trkpt>
      <trkpt lat="44.21123" lon="6.0801">
        <ele>870.61</ele>
        <time>2013-07-30T11:28:33Z</time>
      </trkpt>
      <trkpt lat="44.2112" lon="6.08011">
        <ele>870.13</ele>
        <time>2013-07-30T11:29:08Z</time>
      </trkpt>
      <trkpt lat="44.2112" lon="6.0801">
        <ele>870.13</ele>
        <time>2013-07-30T11:29:40Z</time>
      </trkpt>
      <trkpt lat="44.21122" lon="6.08008">
        <ele>870.13</ele>
        <time>2013-07-30T11:30:12Z</time>
      </trkpt>
      <trkpt lat="44.21122" lon="6.08008">
        <ele>870.13</ele>
        <time>2013-07-30T11:30:47Z</time>
      </trkpt>
      <trkpt lat="44.21126" lon="6.08006">
        <ele>862.92</ele>
        <time>2013-07-30T11:31:12Z</time>
      </trkpt>
      <trkpt lat="44.21126" lon="6.08006">
        <ele>868.69</ele>
        <time>2013-07-30T11:31:13Z</time>
      </trkpt>
      <trkpt lat="44.21124" lon="6.08007">
        <ele>870.13</ele>
        <time>2013-07-30T11:31:15Z</time>
      </trkpt>
      <trkpt lat="44.2112" lon="6.08016">
        <ele>870.61</ele>
        <time>2013-07-30T11:31:39Z</time>
      </trkpt>
      <trkpt lat="44.21113" lon="6.08023">
        <ele>870.13</ele>
        <time>2013-07-30T11:32:04Z</time>
      </trkpt>
      <trkpt lat="44.21114" lon="6.08023">
        <ele>870.13</ele>
        <time>2013-07-30T11:32:27Z</time>
      </trkpt>
      <trkpt lat="44.21118" lon="6.08023">
        <ele>870.13</ele>
        <time>2013-07-30T11:32:50Z</time>
      </trkpt>
      <trkpt lat="44.21116" lon="6.08025">
        <ele>870.13</ele>
        <time>2013-07-30T11:33:07Z</time>
      </trkpt>
      <trkpt lat="44.21117" lon="6.08019">
        <ele>870.13</ele>
        <time>2013-07-30T11:33:27Z</time>
      </trkpt>
      <trkpt lat="44.21121" lon="6.08015">
        <ele>870.13</ele>
        <time>2013-07-30T11:33:51Z</time>
      </trkpt>
      <trkpt lat="44.21118" lon="6.08025">
        <ele>870.61</ele>
        <time>2013-07-30T11:34:16Z</time>
      </trkpt>
      <trkpt lat="44.21112" lon="6.08027">
        <ele>870.61</ele>
        <time>2013-07-30T11:34:32Z</time>
      </trkpt>
      <trkpt lat="44.21119" lon="6.08031">
        <ele>870.13</ele>
        <time>2013-07-30T11:34:55Z</time>
      </trkpt>
      <trkpt lat="44.21119" lon="6.08022">
        <ele>870.13</ele>
        <time>2013-07-30T11:35:15Z</time>
      </trkpt>
      <trkpt lat="44.21119" lon="6.08029">
        <ele>871.09</ele>
        <time>2013-07-30T11:35:33Z</time>
      </trkpt>
      <trkpt lat="44.21118" lon="6.08017">
        <ele>871.09</ele>
        <time>2013-07-30T11:35:55Z</time>
      </trkpt>
      <trkpt lat="44.21117" lon="6.08017">
        <ele>871.09</ele>
        <time>2013-07-30T11:36:19Z</time>
      </trkpt>
      <trkpt lat="44.21117" lon="6.08018">
        <ele>872.05</ele>
        <time>2013-07-30T11:36:43Z</time>
      </trkpt>
      <trkpt lat="44.21116" lon="6.08018">
        <ele>872.05</ele>
        <time>2013-07-30T11:37:07Z</time>
      </trkpt>
      <trkpt lat="44.21117" lon="6.08013">
        <ele>871.57</ele>
        <time>2013-07-30T11:37:31Z</time>
      </trkpt>
      <trkpt lat="44.2112" lon="6.0801">
        <ele>871.57</ele>
        <time>2013-07-30T11:37:54Z</time>
      </trkpt>
      <trkpt lat="44.21121" lon="6.08013">
        <ele>871.09</ele>
        <time>2013-07-30T11:38:20Z</time>
      </trkpt>
      <trkpt lat="44.21124" lon="6.08013">
        <ele>871.09</ele>
        <time>2013-07-30T11:38:45Z</time>
      </trkpt>
      <trkpt lat="44.21123" lon="6.08011">
        <ele>871.09</ele>
        <time>2013-07-30T11:39:07Z</time>
      </trkpt>
      <trkpt lat="44.21119" lon="6.08011">
        <ele>871.09</ele>
        <time>2013-07-30T11:39:25Z</time>
      </trkpt>
      <trkpt lat="44.21128" lon="6.08011">
        <ele>870.13</ele>
        <time>2013-07-30T11:39:44Z</time>
      </trkpt>
      <trkpt lat="44.21129" lon="6.08008">
        <ele>872.05</ele>
        <time>2013-07-30T11:39:58Z</time>
      </trkpt>
      <trkpt lat="44.21123" lon="6.08001">
        <ele>872.53</ele>
        <time>2013-07-30T11:40:10Z</time>
      </trkpt>
      <trkpt lat="44.21115" lon="6.07988">
        <ele>873.98</ele>
        <time>2013-07-30T11:40:26Z</time>
      </trkpt>
      <trkpt lat="44.21113" lon="6.07985">
        <ele>874.46</ele>
        <time>2013-07-30T11:40:30Z</time>
      </trkpt>
      <trkpt lat="44.21107" lon="6.07973">
        <ele>874.94</ele>
        <time>2013-07-30T11:40:42Z</time>
      </trkpt>
      <trkpt lat="44.21102" lon="6.07963">
        <ele>876.86</ele>
        <time>2013-07-30T11:40:55Z</time>
      </trkpt>
      <trkpt lat="44.21096" lon="6.07953">
        <ele>876.86</ele>
        <time>2013-07-30T11:41:08Z</time>
      </trkpt>
      <trkpt lat="44.21094" lon="6.0794">
        <ele>878.3</ele>
        <time>2013-07-30T11:41:20Z</time>
      </trkpt>
      <trkpt lat="44.21092" lon="6.07931">
        <ele>878.3</ele>
        <time>2013-07-30T11:41:31Z</time>
      </trkpt>
      <trkpt lat="44.21087" lon="6.0792">
        <ele>878.3</ele>
        <time>2013-07-30T11:41:42Z</time>
      </trkpt>
      <trkpt lat="44.21079" lon="6.0791">
        <ele>878.3</ele>
        <time>2013-07-30T11:41:54Z</time>
      </trkpt>
      <trkpt lat="44.21073" lon="6.07901">
        <ele>877.34</ele>
        <time>2013-07-30T11:42:05Z</time>
      </trkpt>
      <trkpt lat="44.21072" lon="6.07899">
        <ele>877.82</ele>
        <time>2013-07-30T11:42:06Z</time>
      </trkpt>
      <trkpt lat="44.21068" lon="6.07884">
        <ele>875.9</ele>
        <time>2013-07-30T11:42:18Z</time>
      </trkpt>
      <trkpt lat="44.21066" lon="6.07876">
        <ele>875.42</ele>
        <time>2013-07-30T11:42:27Z</time>
      </trkpt>
      <trkpt lat="44.21064" lon="6.07871">
        <ele>875.42</ele>
        <time>2013-07-30T11:42:32Z</time>
      </trkpt>
      <trkpt lat="44.21057" lon="6.07859">
        <ele>873.5</ele>
        <time>2013-07-30T11:42:42Z</time>
      </trkpt>
      <trkpt lat="44.21052" lon="6.07846">
        <ele>875.42</ele>
        <time>2013-07-30T11:42:54Z</time>
      </trkpt>
      <trkpt lat="44.21044" lon="6.07838">
        <ele>875.42</ele>
        <time>2013-07-30T11:43:04Z</time>
      </trkpt>
      <trkpt lat="44.21036" lon="6.07836">
        <ele>875.9</ele>
        <time>2013-07-30T11:43:12Z</time>
      </trkpt>
      <trkpt lat="44.21026" lon="6.07834">
        <ele>876.86</ele>
        <time>2013-07-30T11:43:24Z</time>
      </trkpt>
      <trkpt lat="44.2102" lon="6.0783">
        <ele>877.34</ele>
        <time>2013-07-30T11:43:37Z</time>
      </trkpt>
      <trkpt lat="44.21017" lon="6.07829">
        <ele>877.82</ele>
        <time>2013-07-30T11:43:53Z</time>
      </trkpt>
      <trkpt lat="44.21009" lon="6.07818">
        <ele>880.22</ele>
        <time>2013-07-30T11:44:05Z</time>
      </trkpt>
      <trkpt lat="44.21" lon="6.0781">
        <ele>879.74</ele>
        <time>2013-07-30T11:44:18Z</time>
      </trkpt>
      <trkpt lat="44.20999" lon="6.07806">
        <ele>879.26</ele>
        <time>2013-07-30T11:44:21Z</time>
      </trkpt>
      <trkpt lat="44.20995" lon="6.07801">
        <ele>878.3</ele>
        <time>2013-07-30T11:44:27Z</time>
      </trkpt>
      <trkpt lat="44.20984" lon="6.07794">
        <ele>877.34</ele>
        <time>2013-07-30T11:44:39Z</time>
      </trkpt>
      <trkpt lat="44.20978" lon="6.07789">
        <ele>876.86</ele>
        <time>2013-07-30T11:44:47Z</time>
      </trkpt>
      <trkpt lat="44.20968" lon="6.0778">
        <ele>876.38</ele>
        <time>2013-07-30T11:44:58Z</time>
      </trkpt>
      <trkpt lat="44.20957" lon="6.07769">
        <ele>875.9</ele>
        <time>2013-07-30T11:45:12Z</time>
      </trkpt>
      <trkpt lat="44.2095" lon="6.07756">
        <ele>875.9</ele>
        <time>2013-07-30T11:45:25Z</time>
      </trkpt>
      <trkpt lat="44.20951" lon="6.07753">
        <ele>875.9</ele>
        <time>2013-07-30T11:45:27Z</time>
      </trkpt>
      <trkpt lat="44.2096" lon="6.07749">
        <ele>875.9</ele>
        <time>2013-07-30T11:45:39Z</time>
      </trkpt>
      <trkpt lat="44.20967" lon="6.07746">
        <ele>874.94</ele>
        <time>2013-07-30T11:45:50Z</time>
      </trkpt>
      <trkpt lat="44.20975" lon="6.07734">
        <ele>875.42</ele>
        <time>2013-07-30T11:46:04Z</time>
      </trkpt>
      <trkpt lat="44.20973" lon="6.07719">
        <ele>874.94</ele>
        <time>2013-07-30T11:46:17Z</time>
      </trkpt>
      <trkpt lat="44.20972" lon="6.07707">
        <ele>875.42</ele>
        <time>2013-07-30T11:46:29Z</time>
      </trkpt>
      <trkpt lat="44.2097" lon="6.07697">
        <ele>875.42</ele>
        <time>2013-07-30T11:46:39Z</time>
      </trkpt>
      <trkpt lat="44.20973" lon="6.07683">
        <ele>874.46</ele>
        <time>2013-07-30T11:46:50Z</time>
      </trkpt>
      <trkpt lat="44.20973" lon="6.07677">
        <ele>874.46</ele>
        <time>2013-07-30T11:46:54Z</time>
      </trkpt>
      <trkpt lat="44.2097" lon="6.07659">
        <ele>873.01</ele>
        <time>2013-07-30T11:47:09Z</time>
      </trkpt>
      <trkpt lat="44.20965" lon="6.07648">
        <ele>872.05</ele>
        <time>2013-07-30T11:47:20Z</time>
      </trkpt>
      <trkpt lat="44.20958" lon="6.07636">
        <ele>870.61</ele>
        <time>2013-07-30T11:47:32Z</time>
      </trkpt>
      <trkpt lat="44.20956" lon="6.07633">
        <ele>869.65</ele>
        <time>2013-07-30T11:47:36Z</time>
      </trkpt>
      <trkpt lat="44.20948" lon="6.07623">
        <ele>870.61</ele>
        <time>2013-07-30T11:47:48Z</time>
      </trkpt>
      <trkpt lat="44.20942" lon="6.07612">
        <ele>870.61</ele>
        <time>2013-07-30T11:47:58Z</time>
      </trkpt>
      <trkpt lat="44.20935" lon="6.07599">
        <ele>871.09</ele>
        <time>2013-07-30T11:48:11Z</time>
      </trkpt>
      <trkpt lat="44.20929" lon="6.07592">
        <ele>870.13</ele>
        <time>2013-07-30T11:48:20Z</time>
      </trkpt>
      <trkpt lat="44.20934" lon="6.07583">
        <ele>868.21</ele>
        <time>2013-07-30T11:48:31Z</time>
      </trkpt>
      <trkpt lat="44.20938" lon="6.07571">
        <ele>867.73</ele>
        <time>2013-07-30T11:48:42Z</time>
      </trkpt>
      <trkpt lat="44.20936" lon="6.07554">
        <ele>867.73</ele>
        <time>2013-07-30T11:48:56Z</time>
      </trkpt>
      <trkpt lat="44.20937" lon="6.07541">
        <ele>869.17</ele>
        <time>2013-07-30T11:49:08Z</time>
      </trkpt>
      <trkpt lat="44.20941" lon="6.07534">
        <ele>868.21</ele>
        <time>2013-07-30T11:49:16Z</time>
      </trkpt>
      <trkpt lat="44.20948" lon="6.0752">
        <ele>865.8</ele>
        <time>2013-07-30T11:49:30Z</time>
      </trkpt>
      <trkpt lat="44.20951" lon="6.07511">
        <ele>865.32</ele>
        <time>2013-07-30T11:49:41Z</time>
      </trkpt>
      <trkpt lat="44.20952" lon="6.07504">
        <ele>864.84</ele>
        <time>2013-07-30T11:49:55Z</time>
      </trkpt>
      <trkpt lat="44.20954" lon="6.07503">
        <ele>864.36</ele>
        <time>2013-07-30T11:50:06Z</time>
      </trkpt>
      <trkpt lat="44.20951" lon="6.07506">
        <ele>865.8</ele>
        <time>2013-07-30T11:50:30Z</time>
      </trkpt>
      <trkpt lat="44.20955" lon="6.07501">
        <ele>861.96</ele>
        <time>2013-07-30T11:50:41Z</time>
      </trkpt>
      <trkpt lat="44.20958" lon="6.07501">
        <ele>863.88</ele>
        <time>2013-07-30T11:50:56Z</time>
      </trkpt>
      <trkpt lat="44.20958" lon="6.07502">
        <ele>863.4</ele>
        <time>2013-07-30T11:51:08Z</time>
      </trkpt>
      <trkpt lat="44.20957" lon="6.075">
        <ele>862.92</ele>
        <time>2013-07-30T11:51:28Z</time>
      </trkpt>
      <trkpt lat="44.20952" lon="6.07495">
        <ele>864.84</ele>
        <time>2013-07-30T11:51:35Z</time>
      </trkpt>
      <trkpt lat="44.20942" lon="6.07486">
        <ele>866.29</ele>
        <time>2013-07-30T11:51:47Z</time>
      </trkpt>
      <trkpt lat="44.20941" lon="6.07474">
        <ele>865.32</ele>
        <time>2013-07-30T11:51:58Z</time>
      </trkpt>
      <trkpt lat="44.2094" lon="6.07462">
        <ele>863.88</ele>
        <time>2013-07-30T11:52:08Z</time>
      </trkpt>
      <trkpt lat="44.20924" lon="6.07457">
        <ele>865.8</ele>
        <time>2013-07-30T11:52:23Z</time>
      </trkpt>
      <trkpt lat="44.2092" lon="6.07455">
        <ele>866.29</ele>
        <time>2013-07-30T11:52:34Z</time>
      </trkpt>
      <trkpt lat="44.20908" lon="6.07447">
        <ele>865.8</ele>
        <time>2013-07-30T11:52:46Z</time>
      </trkpt>
      <trkpt lat="44.20899" lon="6.07439">
        <ele>866.29</ele>
        <time>2013-07-30T11:52:58Z</time>
      </trkpt>
      <trkpt lat="44.20895" lon="6.07435">
        <ele>866.29</ele>
        <time>2013-07-30T11:53:04Z</time>
      </trkpt>
      <trkpt lat="44.20887" lon="6.07427">
        <ele>866.29</ele>
        <time>2013-07-30T11:53:16Z</time>
      </trkpt>
      <trkpt lat="44.2088" lon="6.07417">
        <ele>869.17</ele>
        <time>2013-07-30T11:53:28Z</time>
      </trkpt>
      <trkpt lat="44.20871" lon="6.07408">
        <ele>869.17</ele>
        <time>2013-07-30T11:53:41Z</time>
      </trkpt>
      <trkpt lat="44.20865" lon="6.07401">
        <ele>869.65</ele>
        <time>2013-07-30T11:53:51Z</time>
      </trkpt>
      <trkpt lat="44.20859" lon="6.07393">
        <ele>870.61</ele>
        <time>2013-07-30T11:54:03Z</time>
      </trkpt>
      <trkpt lat="44.20851" lon="6.07382">
        <ele>872.53</ele>
        <time>2013-07-30T11:54:15Z</time>
      </trkpt>
      <trkpt lat="44.20843" lon="6.07379">
        <ele>873.01</ele>
        <time>2013-07-30T11:54:28Z</time>
      </trkpt>
      <trkpt lat="44.20843" lon="6.07378">
        <ele>872.53</ele>
        <time>2013-07-30T11:54:30Z</time>
      </trkpt>
      <trkpt lat="44.2084" lon="6.07373">
        <ele>873.5</ele>
        <time>2013-07-30T11:54:35Z</time>
      </trkpt>
      <trkpt lat="44.20826" lon="6.07365">
        <ele>872.53</ele>
        <time>2013-07-30T11:54:48Z</time>
      </trkpt>
      <trkpt lat="44.20816" lon="6.0736">
        <ele>872.05</ele>
        <time>2013-07-30T11:54:58Z</time>
      </trkpt>
      <trkpt lat="44.20807" lon="6.07352">
        <ele>870.61</ele>
        <time>2013-07-30T11:55:09Z</time>
      </trkpt>
      <trkpt lat="44.20796" lon="6.07343">
        <ele>870.61</ele>
        <time>2013-07-30T11:55:22Z</time>
      </trkpt>
      <trkpt lat="44.20787" lon="6.07332">
        <ele>870.61</ele>
        <time>2013-07-30T11:55:34Z</time>
      </trkpt>
      <trkpt lat="44.20781" lon="6.07322">
        <ele>870.13</ele>
        <time>2013-07-30T11:55:43Z</time>
      </trkpt>
      <trkpt lat="44.2078" lon="6.07315">
        <ele>869.65</ele>
        <time>2013-07-30T11:55:53Z</time>
      </trkpt>
      <trkpt lat="44.20787" lon="6.0731">
        <ele>868.21</ele>
        <time>2013-07-30T11:56:05Z</time>
      </trkpt>
      <trkpt lat="44.20795" lon="6.07312">
        <ele>873.01</ele>
        <time>2013-07-30T11:56:19Z</time>
      </trkpt>
      <trkpt lat="44.20793" lon="6.07308">
        <ele>869.65</ele>
        <time>2013-07-30T11:56:26Z</time>
      </trkpt>
      <trkpt lat="44.20789" lon="6.07305">
        <ele>869.17</ele>
        <time>2013-07-30T11:56:32Z</time>
      </trkpt>
      <trkpt lat="44.20787" lon="6.073">
        <ele>870.13</ele>
        <time>2013-07-30T11:56:36Z</time>
      </trkpt>
      <trkpt lat="44.20786" lon="6.07296">
        <ele>869.17</ele>
        <time>2013-07-30T11:56:42Z</time>
      </trkpt>
      <trkpt lat="44.20784" lon="6.07287">
        <ele>869.65</ele>
        <time>2013-07-30T11:56:53Z</time>
      </trkpt>
      <trkpt lat="44.20782" lon="6.07286">
        <ele>870.13</ele>
        <time>2013-07-30T11:57:10Z</time>
      </trkpt>
      <trkpt lat="44.20779" lon="6.07282">
        <ele>870.61</ele>
        <time>2013-07-30T11:57:27Z</time>
      </trkpt>
      <trkpt lat="44.20778" lon="6.07271">
        <ele>870.13</ele>
        <time>2013-07-30T11:57:40Z</time>
      </trkpt>
      <trkpt lat="44.20771" lon="6.07259">
        <ele>870.13</ele>
        <time>2013-07-30T11:57:54Z</time>
      </trkpt>
      <trkpt lat="44.20765" lon="6.07255">
        <ele>870.61</ele>
        <time>2013-07-30T11:58:08Z</time>
      </trkpt>
      <trkpt lat="44.20757" lon="6.0725">
        <ele>870.61</ele>
        <time>2013-07-30T11:58:20Z</time>
      </trkpt>
      <trkpt lat="44.2075" lon="6.07244">
        <ele>871.09</ele>
        <time>2013-07-30T11:58:32Z</time>
      </trkpt>
      <trkpt lat="44.20744" lon="6.07237">
        <ele>870.13</ele>
        <time>2013-07-30T11:58:44Z</time>
      </trkpt>
      <trkpt lat="44.20742" lon="6.07233">
        <ele>870.61</ele>
        <time>2013-07-30T11:58:50Z</time>
      </trkpt>
      <trkpt lat="44.20732" lon="6.07222">
        <ele>870.13</ele>
        <time>2013-07-30T11:59:00Z</time>
      </trkpt>
      <trkpt lat="44.2073" lon="6.0722">
        <ele>871.09</ele>
        <time>2013-07-30T11:59:02Z</time>
      </trkpt>
      <trkpt lat="44.2073" lon="6.07209">
        <ele>869.65</ele>
        <time>2013-07-30T11:59:12Z</time>
      </trkpt>
      <trkpt lat="44.20733" lon="6.07206">
        <ele>869.65</ele>
        <time>2013-07-30T11:59:22Z</time>
      </trkpt>
      <trkpt lat="44.20731" lon="6.072">
        <ele>868.69</ele>
        <time>2013-07-30T11:59:34Z</time>
      </trkpt>
      <trkpt lat="44.20731" lon="6.072">
        <ele>868.21</ele>
        <time>2013-07-30T11:59:54Z</time>
      </trkpt>
      <trkpt lat="44.2073" lon="6.072">
        <ele>867.73</ele>
        <time>2013-07-30T12:00:09Z</time>
      </trkpt>
      <trkpt lat="44.2073" lon="6.07198">
        <ele>867.25</ele>
        <time>2013-07-30T12:00:21Z</time>
      </trkpt>
      <trkpt lat="44.20728" lon="6.07196">
        <ele>867.25</ele>
        <time>2013-07-30T12:00:31Z</time>
      </trkpt>
      <trkpt lat="44.20724" lon="6.0719">
        <ele>867.25</ele>
        <time>2013-07-30T12:00:44Z</time>
      </trkpt>
      <trkpt lat="44.20725" lon="6.07182">
        <ele>866.29</ele>
        <time>2013-07-30T12:00:57Z</time>
      </trkpt>
      <trkpt lat="44.20727" lon="6.07179">
        <ele>865.8</ele>
        <time>2013-07-30T12:01:01Z</time>
      </trkpt>
      <trkpt lat="44.20734" lon="6.0717">
        <ele>865.32</ele>
        <time>2013-07-30T12:01:14Z</time>
      </trkpt>
      <trkpt lat="44.20737" lon="6.07162">
        <ele>865.32</ele>
        <time>2013-07-30T12:01:23Z</time>
      </trkpt>
      <trkpt lat="44.2073" lon="6.0715">
        <ele>863.88</ele>
        <time>2013-07-30T12:01:34Z</time>
      </trkpt>
      <trkpt lat="44.20724" lon="6.07142">
        <ele>862.92</ele>
        <time>2013-07-30T12:01:46Z</time>
      </trkpt>
      <trkpt lat="44.20722" lon="6.0714">
        <ele>862.92</ele>
        <time>2013-07-30T12:01:51Z</time>
      </trkpt>
      <trkpt lat="44.20716" lon="6.07126">
        <ele>862.44</ele>
        <time>2013-07-30T12:02:03Z</time>
      </trkpt>
      <trkpt lat="44.2071" lon="6.07118">
        <ele>861.96</ele>
        <time>2013-07-30T12:02:16Z</time>
      </trkpt>
      <trkpt lat="44.20701" lon="6.07107">
        <ele>861.48</ele>
        <time>2013-07-30T12:02:28Z</time>
      </trkpt>
      <trkpt lat="44.207" lon="6.07106">
        <ele>861.96</ele>
        <time>2013-07-30T12:02:29Z</time>
      </trkpt>
      <trkpt lat="44.20688" lon="6.07097">
        <ele>861.48</ele>
        <time>2013-07-30T12:02:43Z</time>
      </trkpt>
      <trkpt lat="44.20676" lon="6.0709">
        <ele>859.56</ele>
        <time>2013-07-30T12:02:55Z</time>
      </trkpt>
      <trkpt lat="44.20673" lon="6.07088">
        <ele>859.56</ele>
        <time>2013-07-30T12:03:06Z</time>
      </trkpt>
      <trkpt lat="44.20668" lon="6.07083">
        <ele>859.08</ele>
        <time>2013-07-30T12:03:18Z</time>
      </trkpt>
      <trkpt lat="44.20653" lon="6.07068">
        <ele>859.08</ele>
        <time>2013-07-30T12:03:33Z</time>
      </trkpt>
      <trkpt lat="44.2064" lon="6.07057">
        <ele>859.08</ele>
        <time>2013-07-30T12:03:47Z</time>
      </trkpt>
      <trkpt lat="44.2063" lon="6.07047">
        <ele>860.04</ele>
        <time>2013-07-30T12:04:02Z</time>
      </trkpt>
      <trkpt lat="44.20614" lon="6.07038">
        <ele>859.56</ele>
        <time>2013-07-30T12:04:18Z</time>
      </trkpt>
      <trkpt lat="44.20606" lon="6.07034">
        <ele>861.48</ele>
        <time>2013-07-30T12:04:31Z</time>
      </trkpt>
      <trkpt lat="44.20593" lon="6.07025">
        <ele>861.48</ele>
        <time>2013-07-30T12:04:45Z</time>
      </trkpt>
      <trkpt lat="44.20588" lon="6.07023">
        <ele>863.4</ele>
        <time>2013-07-30T12:04:56Z</time>
      </trkpt>
      <trkpt lat="44.20579" lon="6.07016">
        <ele>865.8</ele>
        <time>2013-07-30T12:05:07Z</time>
      </trkpt>
      <trkpt lat="44.20578" lon="6.07016">
        <ele>865.32</ele>
        <time>2013-07-30T12:05:08Z</time>
      </trkpt>
      <trkpt lat="44.20574" lon="6.07013">
        <ele>866.77</ele>
        <time>2013-07-30T12:05:11Z</time>
      </trkpt>
      <trkpt lat="44.2056" lon="6.0701">
        <ele>868.21</ele>
        <time>2013-07-30T12:05:21Z</time>
      </trkpt>
      <trkpt lat="44.20551" lon="6.07003">
        <ele>868.69</ele>
        <time>2013-07-30T12:05:31Z</time>
      </trkpt>
      <trkpt lat="44.20547" lon="6.07005">
        <ele>868.69</ele>
        <time>2013-07-30T12:05:40Z</time>
      </trkpt>
      <trkpt lat="44.20537" lon="6.07005">
        <ele>873.01</ele>
        <time>2013-07-30T12:05:53Z</time>
      </trkpt>
      <trkpt lat="44.20536" lon="6.07006">
        <ele>869.17</ele>
        <time>2013-07-30T12:05:54Z</time>
      </trkpt>
      <trkpt lat="44.20526" lon="6.06999">
        <ele>870.61</ele>
        <time>2013-07-30T12:06:08Z</time>
      </trkpt>
      <trkpt lat="44.20516" lon="6.06989">
        <ele>873.01</ele>
        <time>2013-07-30T12:06:21Z</time>
      </trkpt>
      <trkpt lat="44.20505" lon="6.06981">
        <ele>873.98</ele>
        <time>2013-07-30T12:06:35Z</time>
      </trkpt>
      <trkpt lat="44.20496" lon="6.06976">
        <ele>873.5</ele>
        <time>2013-07-30T12:06:47Z</time>
      </trkpt>
      <trkpt lat="44.20486" lon="6.0697">
        <ele>872.53</ele>
        <time>2013-07-30T12:06:55Z</time>
      </trkpt>
      <trkpt lat="44.20484" lon="6.0696">
        <ele>873.98</ele>
        <time>2013-07-30T12:07:07Z</time>
      </trkpt>
      <trkpt lat="44.20483" lon="6.06961">
        <ele>873.98</ele>
        <time>2013-07-30T12:07:35Z</time>
      </trkpt>
      <trkpt lat="44.20482" lon="6.06956">
        <ele>873.01</ele>
        <time>2013-07-30T12:07:55Z</time>
      </trkpt>
      <trkpt lat="44.20479" lon="6.06959">
        <ele>871.09</ele>
        <time>2013-07-30T12:07:58Z</time>
      </trkpt>
      <trkpt lat="44.20473" lon="6.06958">
        <ele>870.13</ele>
        <time>2013-07-30T12:08:11Z</time>
      </trkpt>
      <trkpt lat="44.20467" lon="6.0695">
        <ele>869.17</ele>
        <time>2013-07-30T12:08:24Z</time>
      </trkpt>
      <trkpt lat="44.20463" lon="6.06947">
        <ele>868.21</ele>
        <time>2013-07-30T12:08:29Z</time>
      </trkpt>
      <trkpt lat="44.20456" lon="6.06938">
        <ele>866.29</ele>
        <time>2013-07-30T12:08:42Z</time>
      </trkpt>
      <trkpt lat="44.20447" lon="6.06938">
        <ele>864.36</ele>
        <time>2013-07-30T12:08:54Z</time>
      </trkpt>
      <trkpt lat="44.20441" lon="6.06936">
        <ele>862.44</ele>
        <time>2013-07-30T12:09:06Z</time>
      </trkpt>
      <trkpt lat="44.20438" lon="6.06938">
        <ele>861</ele>
        <time>2013-07-30T12:09:15Z</time>
      </trkpt>
      <trkpt lat="44.20434" lon="6.06937">
        <ele>860.04</ele>
        <time>2013-07-30T12:09:18Z</time>
      </trkpt>
      <trkpt lat="44.2043" lon="6.06928">
        <ele>858.59</ele>
        <time>2013-07-30T12:09:27Z</time>
      </trkpt>
      <trkpt lat="44.20434" lon="6.06922">
        <ele>857.15</ele>
        <time>2013-07-30T12:09:40Z</time>
      </trkpt>
      <trkpt lat="44.20438" lon="6.06913">
        <ele>855.71</ele>
        <time>2013-07-30T12:09:53Z</time>
      </trkpt>
      <trkpt lat="44.20442" lon="6.06903">
        <ele>853.79</ele>
        <time>2013-07-30T12:10:05Z</time>
      </trkpt>
      <trkpt lat="44.20446" lon="6.0689">
        <ele>852.35</ele>
        <time>2013-07-30T12:10:17Z</time>
      </trkpt>
      <trkpt lat="44.20444" lon="6.0687">
        <ele>849.94</ele>
        <time>2013-07-30T12:10:33Z</time>
      </trkpt>
      <trkpt lat="44.20439" lon="6.06867">
        <ele>848.98</ele>
        <time>2013-07-30T12:10:48Z</time>
      </trkpt>
      <trkpt lat="44.2043" lon="6.06863">
        <ele>847.06</ele>
        <time>2013-07-30T12:10:59Z</time>
      </trkpt>
      <trkpt lat="44.20426" lon="6.06858">
        <ele>845.62</ele>
        <time>2013-07-30T12:11:15Z</time>
      </trkpt>
      <trkpt lat="44.20423" lon="6.06856">
        <ele>845.14</ele>
        <time>2013-07-30T12:11:29Z</time>
      </trkpt>
      <trkpt lat="44.2042" lon="6.06851">
        <ele>844.66</ele>
        <time>2013-07-30T12:11:48Z</time>
      </trkpt>
      <trkpt lat="44.20412" lon="6.06841">
        <ele>844.18</ele>
        <time>2013-07-30T12:12:00Z</time>
      </trkpt>
      <trkpt lat="44.20407" lon="6.06839">
        <ele>843.69</ele>
        <time>2013-07-30T12:12:13Z</time>
      </trkpt>
      <trkpt lat="44.204" lon="6.0683">
        <ele>843.21</ele>
        <time>2013-07-30T12:12:26Z</time>
      </trkpt>
      <trkpt lat="44.20399" lon="6.06828">
        <ele>842.73</ele>
        <time>2013-07-30T12:12:28Z</time>
      </trkpt>
      <trkpt lat="44.20397" lon="6.06824">
        <ele>842.73</ele>
        <time>2013-07-30T12:12:32Z</time>
      </trkpt>
      <trkpt lat="44.2039" lon="6.06814">
        <ele>843.21</ele>
        <time>2013-07-30T12:12:43Z</time>
      </trkpt>
      <trkpt lat="44.20384" lon="6.06798">
        <ele>841.77</ele>
        <time>2013-07-30T12:12:56Z</time>
      </trkpt>
      <trkpt lat="44.20385" lon="6.06784">
        <ele>842.73</ele>
        <time>2013-07-30T12:13:08Z</time>
      </trkpt>
      <trkpt lat="44.2039" lon="6.06766">
        <ele>840.33</ele>
        <time>2013-07-30T12:13:20Z</time>
      </trkpt>
      <trkpt lat="44.20396" lon="6.06749">
        <ele>838.41</ele>
        <time>2013-07-30T12:13:32Z</time>
      </trkpt>
      <trkpt lat="44.20404" lon="6.06739">
        <ele>837.45</ele>
        <time>2013-07-30T12:13:45Z</time>
      </trkpt>
      <trkpt lat="44.20405" lon="6.06739">
        <ele>836.96</ele>
        <time>2013-07-30T12:13:46Z</time>
      </trkpt>
      <trkpt lat="44.20415" lon="6.06733">
        <ele>835.52</ele>
        <time>2013-07-30T12:13:57Z</time>
      </trkpt>
      <trkpt lat="44.20422" lon="6.06733">
        <ele>834.08</ele>
        <time>2013-07-30T12:14:07Z</time>
      </trkpt>
      <trkpt lat="44.20433" lon="6.0674">
        <ele>833.6</ele>
        <time>2013-07-30T12:14:20Z</time>
      </trkpt>
      <trkpt lat="44.2044" lon="6.06741">
        <ele>831.68</ele>
        <time>2013-07-30T12:14:31Z</time>
      </trkpt>
      <trkpt lat="44.20447" lon="6.0674">
        <ele>830.72</ele>
        <time>2013-07-30T12:14:40Z</time>
      </trkpt>
      <trkpt lat="44.20452" lon="6.06739">
        <ele>829.76</ele>
        <time>2013-07-30T12:14:48Z</time>
      </trkpt>
      <trkpt lat="44.20463" lon="6.06732">
        <ele>828.31</ele>
        <time>2013-07-30T12:14:59Z</time>
      </trkpt>
      <trkpt lat="44.20472" lon="6.06728">
        <ele>826.87</ele>
        <time>2013-07-30T12:15:09Z</time>
      </trkpt>
      <trkpt lat="44.20475" lon="6.06725">
        <ele>825.91</ele>
        <time>2013-07-30T12:15:13Z</time>
      </trkpt>
      <trkpt lat="44.20487" lon="6.0672">
        <ele>823.03</ele>
        <time>2013-07-30T12:15:27Z</time>
      </trkpt>
      <trkpt lat="44.2049" lon="6.06716">
        <ele>823.99</ele>
        <time>2013-07-30T12:15:44Z</time>
      </trkpt>
      <trkpt lat="44.20489" lon="6.06716">
        <ele>823.03</ele>
        <time>2013-07-30T12:16:11Z</time>
      </trkpt>
      <trkpt lat="44.20489" lon="6.06715">
        <ele>823.03</ele>
        <time>2013-07-30T12:16:26Z</time>
      </trkpt>
      <trkpt lat="44.20488" lon="6.06717">
        <ele>823.03</ele>
        <time>2013-07-30T12:16:49Z</time>
      </trkpt>
      <trkpt lat="44.20486" lon="6.06717">
        <ele>823.51</ele>
        <time>2013-07-30T12:17:13Z</time>
      </trkpt>
      <trkpt lat="44.20488" lon="6.06715">
        <ele>823.99</ele>
        <time>2013-07-30T12:17:30Z</time>
      </trkpt>
      <trkpt lat="44.20489" lon="6.06712">
        <ele>823.03</ele>
        <time>2013-07-30T12:17:33Z</time>
      </trkpt>
      <trkpt lat="44.20492" lon="6.06709">
        <ele>822.55</ele>
        <time>2013-07-30T12:17:37Z</time>
      </trkpt>
      <trkpt lat="44.20495" lon="6.06708">
        <ele>822.55</ele>
        <time>2013-07-30T12:17:42Z</time>
      </trkpt>
      <trkpt lat="44.205" lon="6.06703">
        <ele>822.55</ele>
        <time>2013-07-30T12:17:48Z</time>
      </trkpt>
      <trkpt lat="44.20506" lon="6.06695">
        <ele>822.06</ele>
        <time>2013-07-30T12:17:58Z</time>
      </trkpt>
      <trkpt lat="44.20508" lon="6.06689">
        <ele>822.06</ele>
        <time>2013-07-30T12:18:06Z</time>
      </trkpt>
      <trkpt lat="44.20515" lon="6.0668">
        <ele>822.55</ele>
        <time>2013-07-30T12:18:17Z</time>
      </trkpt>
      <trkpt lat="44.20522" lon="6.06676">
        <ele>821.1</ele>
        <time>2013-07-30T12:18:28Z</time>
      </trkpt>
      <trkpt lat="44.20532" lon="6.06675">
        <ele>820.14</ele>
        <time>2013-07-30T12:18:39Z</time>
      </trkpt>
      <trkpt lat="44.20537" lon="6.06674">
        <ele>819.66</ele>
        <time>2013-07-30T12:18:43Z</time>
      </trkpt>
      <trkpt lat="44.20545" lon="6.06668">
        <ele>819.66</ele>
        <time>2013-07-30T12:18:56Z</time>
      </trkpt>
      <trkpt lat="44.20552" lon="6.06666">
        <ele>818.22</ele>
        <time>2013-07-30T12:19:06Z</time>
      </trkpt>
      <trkpt lat="44.20562" lon="6.06665">
        <ele>817.26</ele>
        <time>2013-07-30T12:19:18Z</time>
      </trkpt>
      <trkpt lat="44.2057" lon="6.06652">
        <ele>817.74</ele>
        <time>2013-07-30T12:19:29Z</time>
      </trkpt>
      <trkpt lat="44.20571" lon="6.06641">
        <ele>817.26</ele>
        <time>2013-07-30T12:19:39Z</time>
      </trkpt>
      <trkpt lat="44.20574" lon="6.06629">
        <ele>816.3</ele>
        <time>2013-07-30T12:19:51Z</time>
      </trkpt>
      <trkpt lat="44.20573" lon="6.06625">
        <ele>816.3</ele>
        <time>2013-07-30T12:19:56Z</time>
      </trkpt>
      <trkpt lat="44.20571" lon="6.06619">
        <ele>816.3</ele>
        <time>2013-07-30T12:20:11Z</time>
      </trkpt>
      <trkpt lat="44.20568" lon="6.06614">
        <ele>816.78</ele>
        <time>2013-07-30T12:20:25Z</time>
      </trkpt>
      <trkpt lat="44.20569" lon="6.06611">
        <ele>816.78</ele>
        <time>2013-07-30T12:20:30Z</time>
      </trkpt>
      <trkpt lat="44.20575" lon="6.06598">
        <ele>815.34</ele>
        <time>2013-07-30T12:20:42Z</time>
      </trkpt>
      <trkpt lat="44.20578" lon="6.06596">
        <ele>814.37</ele>
        <time>2013-07-30T12:20:49Z</time>
      </trkpt>
      <trkpt lat="44.20584" lon="6.06584">
        <ele>814.37</ele>
        <time>2013-07-30T12:21:00Z</time>
      </trkpt>
      <trkpt lat="44.20583" lon="6.06583">
        <ele>814.37</ele>
        <time>2013-07-30T12:21:01Z</time>
      </trkpt>
      <trkpt lat="44.20583" lon="6.06565">
        <ele>812.93</ele>
        <time>2013-07-30T12:21:14Z</time>
      </trkpt>
      <trkpt lat="44.20581" lon="6.06551">
        <ele>811.97</ele>
        <time>2013-07-30T12:21:25Z</time>
      </trkpt>
      <trkpt lat="44.20585" lon="6.06545">
        <ele>811.01</ele>
        <time>2013-07-30T12:21:32Z</time>
      </trkpt>
      <trkpt lat="44.20594" lon="6.0654">
        <ele>810.05</ele>
        <time>2013-07-30T12:21:44Z</time>
      </trkpt>
      <trkpt lat="44.20601" lon="6.06536">
        <ele>809.09</ele>
        <time>2013-07-30T12:21:54Z</time>
      </trkpt>
      <trkpt lat="44.20605" lon="6.06534">
        <ele>808.61</ele>
        <time>2013-07-30T12:21:59Z</time>
      </trkpt>
      <trkpt lat="44.20609" lon="6.06527">
        <ele>806.2</ele>
        <time>2013-07-30T12:22:12Z</time>
      </trkpt>
      <trkpt lat="44.20605" lon="6.06532">
        <ele>805.72</ele>
        <time>2013-07-30T12:22:28Z</time>
      </trkpt>
      <trkpt lat="44.20612" lon="6.06522">
        <ele>805.24</ele>
        <time>2013-07-30T12:22:41Z</time>
      </trkpt>
      <trkpt lat="44.20618" lon="6.06518">
        <ele>804.76</ele>
        <time>2013-07-30T12:23:01Z</time>
      </trkpt>
      <trkpt lat="44.2062" lon="6.06508">
        <ele>804.28</ele>
        <time>2013-07-30T12:23:09Z</time>
      </trkpt>
      <trkpt lat="44.20617" lon="6.06503">
        <ele>802.84</ele>
        <time>2013-07-30T12:23:12Z</time>
      </trkpt>
      <trkpt lat="44.20613" lon="6.06494">
        <ele>802.36</ele>
        <time>2013-07-30T12:23:22Z</time>
      </trkpt>
      <trkpt lat="44.2061" lon="6.06477">
        <ele>800.44</ele>
        <time>2013-07-30T12:23:37Z</time>
      </trkpt>
      <trkpt lat="44.20605" lon="6.06466">
        <ele>800.92</ele>
        <time>2013-07-30T12:23:48Z</time>
      </trkpt>
      <trkpt lat="44.20595" lon="6.06458">
        <ele>798.99</ele>
        <time>2013-07-30T12:23:57Z</time>
      </trkpt>
      <trkpt lat="44.20576" lon="6.06446">
        <ele>796.59</ele>
        <time>2013-07-30T12:24:15Z</time>
      </trkpt>
      <trkpt lat="44.20563" lon="6.06443">
        <ele>794.67</ele>
        <time>2013-07-30T12:24:29Z</time>
      </trkpt>
      <trkpt lat="44.2055" lon="6.06437">
        <ele>791.3</ele>
        <time>2013-07-30T12:24:43Z</time>
      </trkpt>
      <trkpt lat="44.20539" lon="6.0643">
        <ele>790.34</ele>
        <time>2013-07-30T12:24:55Z</time>
      </trkpt>
      <trkpt lat="44.20528" lon="6.0642">
        <ele>787.46</ele>
        <time>2013-07-30T12:25:08Z</time>
      </trkpt>
      <trkpt lat="44.20515" lon="6.06413">
        <ele>785.05</ele>
        <time>2013-07-30T12:25:23Z</time>
      </trkpt>
      <trkpt lat="44.20506" lon="6.06398">
        <ele>784.57</ele>
        <time>2013-07-30T12:25:39Z</time>
      </trkpt>
      <trkpt lat="44.20501" lon="6.06386">
        <ele>782.65</ele>
        <time>2013-07-30T12:25:51Z</time>
      </trkpt>
      <trkpt lat="44.20499" lon="6.06375">
        <ele>781.69</ele>
        <time>2013-07-30T12:25:59Z</time>
      </trkpt>
      <trkpt lat="44.20506" lon="6.06363">
        <ele>779.77</ele>
        <time>2013-07-30T12:26:09Z</time>
      </trkpt>
      <trkpt lat="44.20512" lon="6.06352">
        <ele>778.32</ele>
        <time>2013-07-30T12:26:20Z</time>
      </trkpt>
      <trkpt lat="44.20515" lon="6.06348">
        <ele>777.36</ele>
        <time>2013-07-30T12:26:24Z</time>
      </trkpt>
      <trkpt lat="44.20518" lon="6.06336">
        <ele>776.88</ele>
        <time>2013-07-30T12:26:36Z</time>
      </trkpt>
      <trkpt lat="44.20521" lon="6.06327">
        <ele>775.92</ele>
        <time>2013-07-30T12:26:51Z</time>
      </trkpt>
      <trkpt lat="44.20522" lon="6.06321">
        <ele>775.44</ele>
        <time>2013-07-30T12:27:12Z</time>
      </trkpt>
      <trkpt lat="44.20523" lon="6.06317">
        <ele>775.44</ele>
        <time>2013-07-30T12:27:29Z</time>
      </trkpt>
      <trkpt lat="44.2052" lon="6.0632">
        <ele>775.44</ele>
        <time>2013-07-30T12:27:53Z</time>
      </trkpt>
      <trkpt lat="44.20524" lon="6.06313">
        <ele>775.44</ele>
        <time>2013-07-30T12:28:13Z</time>
      </trkpt>
      <trkpt lat="44.20522" lon="6.06304">
        <ele>775.44</ele>
        <time>2013-07-30T12:28:35Z</time>
      </trkpt>
      <trkpt lat="44.2052" lon="6.06314">
        <ele>775.44</ele>
        <time>2013-07-30T12:28:57Z</time>
      </trkpt>
      <trkpt lat="44.20521" lon="6.06315">
        <ele>774.96</ele>
        <time>2013-07-30T12:29:24Z</time>
      </trkpt>
      <trkpt lat="44.20521" lon="6.06317">
        <ele>774.96</ele>
        <time>2013-07-30T12:29:41Z</time>
      </trkpt>
      <trkpt lat="44.20519" lon="6.06322">
        <ele>775.44</ele>
        <time>2013-07-30T12:29:58Z</time>
      </trkpt>
      <trkpt lat="44.20522" lon="6.06324">
        <ele>775.44</ele>
        <time>2013-07-30T12:30:21Z</time>
      </trkpt>
      <trkpt lat="44.20523" lon="6.0632">
        <ele>775.44</ele>
        <time>2013-07-30T12:30:45Z</time>
      </trkpt>
      <trkpt lat="44.20528" lon="6.0632">
        <ele>774.96</ele>
        <time>2013-07-30T12:31:01Z</time>
      </trkpt>
      <trkpt lat="44.20526" lon="6.06319">
        <ele>775.44</ele>
        <time>2013-07-30T12:31:13Z</time>
      </trkpt>
      <trkpt lat="44.2052" lon="6.06315">
        <ele>774.96</ele>
        <time>2013-07-30T12:31:32Z</time>
      </trkpt>
      <trkpt lat="44.20518" lon="6.06319">
        <ele>774.96</ele>
        <time>2013-07-30T12:31:50Z</time>
      </trkpt>
      <trkpt lat="44.20517" lon="6.06329">
        <ele>774.96</ele>
        <time>2013-07-30T12:32:08Z</time>
      </trkpt>
      <trkpt lat="44.20523" lon="6.06328">
        <ele>774.96</ele>
        <time>2013-07-30T12:32:30Z</time>
      </trkpt>
      <trkpt lat="44.20525" lon="6.06324">
        <ele>774.96</ele>
        <time>2013-07-30T12:32:48Z</time>
      </trkpt>
      <trkpt lat="44.20521" lon="6.06325">
        <ele>776.4</ele>
        <time>2013-07-30T12:33:10Z</time>
      </trkpt>
      <trkpt lat="44.20526" lon="6.06324">
        <ele>775.44</ele>
        <time>2013-07-30T12:33:23Z</time>
      </trkpt>
      <trkpt lat="44.20524" lon="6.06325">
        <ele>775.44</ele>
        <time>2013-07-30T12:33:42Z</time>
      </trkpt>
      <trkpt lat="44.20523" lon="6.06328">
        <ele>775.92</ele>
        <time>2013-07-30T12:34:04Z</time>
      </trkpt>
      <trkpt lat="44.20523" lon="6.06327">
        <ele>773.52</ele>
        <time>2013-07-30T12:34:25Z</time>
      </trkpt>
      <trkpt lat="44.20524" lon="6.06327">
        <ele>774.96</ele>
        <time>2013-07-30T12:34:26Z</time>
      </trkpt>
      <trkpt lat="44.20525" lon="6.06327">
        <ele>775.44</ele>
        <time>2013-07-30T12:34:33Z</time>
      </trkpt>
      <trkpt lat="44.20521" lon="6.06314">
        <ele>775.92</ele>
        <time>2013-07-30T12:34:47Z</time>
      </trkpt>
      <trkpt lat="44.20521" lon="6.06319">
        <ele>774.96</ele>
        <time>2013-07-30T12:35:04Z</time>
      </trkpt>
      <trkpt lat="44.20518" lon="6.06319">
        <ele>774.48</ele>
        <time>2013-07-30T12:35:25Z</time>
      </trkpt>
      <trkpt lat="44.20519" lon="6.06324">
        <ele>771.6</ele>
        <time>2013-07-30T12:35:43Z</time>
      </trkpt>
      <trkpt lat="44.2052" lon="6.06325">
        <ele>777.36</ele>
        <time>2013-07-30T12:35:44Z</time>
      </trkpt>
      <trkpt lat="44.2052" lon="6.06327">
        <ele>775.44</ele>
        <time>2013-07-30T12:35:47Z</time>
      </trkpt>
      <trkpt lat="44.20515" lon="6.06325">
        <ele>774.96</ele>
        <time>2013-07-30T12:35:59Z</time>
      </trkpt>
      <trkpt lat="44.20518" lon="6.06323">
        <ele>776.4</ele>
        <time>2013-07-30T12:36:01Z</time>
      </trkpt>
      <trkpt lat="44.20522" lon="6.06318">
        <ele>775.44</ele>
        <time>2013-07-30T12:36:05Z</time>
      </trkpt>
      <trkpt lat="44.2052" lon="6.0632">
        <ele>774.48</ele>
        <time>2013-07-30T12:36:19Z</time>
      </trkpt>
      <trkpt lat="44.2052" lon="6.06322">
        <ele>774.48</ele>
        <time>2013-07-30T12:36:23Z</time>
      </trkpt>
      <trkpt lat="44.20519" lon="6.06325">
        <ele>775.44</ele>
        <time>2013-07-30T12:36:38Z</time>
      </trkpt>
      <trkpt lat="44.20519" lon="6.06322">
        <ele>774.96</ele>
        <time>2013-07-30T12:36:55Z</time>
      </trkpt>
      <trkpt lat="44.20521" lon="6.06319">
        <ele>774.48</ele>
        <time>2013-07-30T12:37:05Z</time>
      </trkpt>
      <trkpt lat="44.20523" lon="6.06328">
        <ele>775.44</ele>
        <time>2013-07-30T12:37:17Z</time>
      </trkpt>
      <trkpt lat="44.20523" lon="6.0633">
        <ele>775.44</ele>
        <time>2013-07-30T12:37:31Z</time>
      </trkpt>
      <trkpt lat="44.20517" lon="6.06324">
        <ele>774.96</ele>
        <time>2013-07-30T12:37:46Z</time>
      </trkpt>
      <trkpt lat="44.20517" lon="6.06324">
        <ele>774.96</ele>
        <time>2013-07-30T12:38:04Z</time>
      </trkpt>
      <trkpt lat="44.2052" lon="6.06327">
        <ele>774.96</ele>
        <time>2013-07-30T12:38:27Z</time>
      </trkpt>
      <trkpt lat="44.20518" lon="6.06325">
        <ele>774.96</ele>
        <time>2013-07-30T12:38:48Z</time>
      </trkpt>
      <trkpt lat="44.2052" lon="6.06317">
        <ele>773.52</ele>
        <time>2013-07-30T12:39:00Z</time>
      </trkpt>
      <trkpt lat="44.20518" lon="6.06321">
        <ele>774</ele>
        <time>2013-07-30T12:39:24Z</time>
      </trkpt>
      <trkpt lat="44.20515" lon="6.06326">
        <ele>775.44</ele>
        <time>2013-07-30T12:39:37Z</time>
      </trkpt>
      <trkpt lat="44.20519" lon="6.06325">
        <ele>775.92</ele>
        <time>2013-07-30T12:39:51Z</time>
      </trkpt>
      <trkpt lat="44.2052" lon="6.06325">
        <ele>771.6</ele>
        <time>2013-07-30T12:40:03Z</time>
      </trkpt>
      <trkpt lat="44.2052" lon="6.06326">
        <ele>775.44</ele>
        <time>2013-07-30T12:40:04Z</time>
      </trkpt>
      <trkpt lat="44.20521" lon="6.06325">
        <ele>776.88</ele>
        <time>2013-07-30T12:40:06Z</time>
      </trkpt>
      <trkpt lat="44.20521" lon="6.06324">
        <ele>774.96</ele>
        <time>2013-07-30T12:40:08Z</time>
      </trkpt>
      <trkpt lat="44.20519" lon="6.06318">
        <ele>774.96</ele>
        <time>2013-07-30T12:40:20Z</time>
      </trkpt>
      <trkpt lat="44.20513" lon="6.06317">
        <ele>774.96</ele>
        <time>2013-07-30T12:40:46Z</time>
      </trkpt>
      <trkpt lat="44.20518" lon="6.06317">
        <ele>774.96</ele>
        <time>2013-07-30T12:41:04Z</time>
      </trkpt>
      <trkpt lat="44.20522" lon="6.06317">
        <ele>774.96</ele>
        <time>2013-07-30T12:41:22Z</time>
      </trkpt>
      <trkpt lat="44.20528" lon="6.06306">
        <ele>774.48</ele>
        <time>2013-07-30T12:41:43Z</time>
      </trkpt>
      <trkpt lat="44.20525" lon="6.06318">
        <ele>774.96</ele>
        <time>2013-07-30T12:41:59Z</time>
      </trkpt>
      <trkpt lat="44.20524" lon="6.06316">
        <ele>774.96</ele>
        <time>2013-07-30T12:42:14Z</time>
      </trkpt>
      <trkpt lat="44.20522" lon="6.06312">
        <ele>774.48</ele>
        <time>2013-07-30T12:42:27Z</time>
      </trkpt>
      <trkpt lat="44.20529" lon="6.06302">
        <ele>774</ele>
        <time>2013-07-30T12:42:45Z</time>
      </trkpt>
      <trkpt lat="44.20524" lon="6.06303">
        <ele>774</ele>
        <time>2013-07-30T12:43:05Z</time>
      </trkpt>
      <trkpt lat="44.20525" lon="6.06296">
        <ele>774</ele>
        <time>2013-07-30T12:43:14Z</time>
      </trkpt>
      <trkpt lat="44.2053" lon="6.06292">
        <ele>773.04</ele>
        <time>2013-07-30T12:43:24Z</time>
      </trkpt>
      <trkpt lat="44.20537" lon="6.06285">
        <ele>772.56</ele>
        <time>2013-07-30T12:43:35Z</time>
      </trkpt>
      <trkpt lat="44.20543" lon="6.06281">
        <ele>772.56</ele>
        <time>2013-07-30T12:43:48Z</time>
      </trkpt>
      <trkpt lat="44.20546" lon="6.06277">
        <ele>773.04</ele>
        <time>2013-07-30T12:44:04Z</time>
      </trkpt>
      <trkpt lat="44.20547" lon="6.06274">
        <ele>772.56</ele>
        <time>2013-07-30T12:44:22Z</time>
      </trkpt>
      <trkpt lat="44.20544" lon="6.06279">
        <ele>772.56</ele>
        <time>2013-07-30T12:44:51Z</time>
      </trkpt>
      <trkpt lat="44.20546" lon="6.06272">
        <ele>771.11</ele>
        <time>2013-07-30T12:45:06Z</time>
      </trkpt>
      <trkpt lat="44.20544" lon="6.06262">
        <ele>769.19</ele>
        <time>2013-07-30T12:45:16Z</time>
      </trkpt>
      <trkpt lat="44.2054" lon="6.06252">
        <ele>767.27</ele>
        <time>2013-07-30T12:45:27Z</time>
      </trkpt>
      <trkpt lat="44.20532" lon="6.06235">
        <ele>767.27</ele>
        <time>2013-07-30T12:45:40Z</time>
      </trkpt>
      <trkpt lat="44.20531" lon="6.06234">
        <ele>766.79</ele>
        <time>2013-07-30T12:45:41Z</time>
      </trkpt>
      <trkpt lat="44.20518" lon="6.0622">
        <ele>765.83</ele>
        <time>2013-07-30T12:45:55Z</time>
      </trkpt>
      <trkpt lat="44.20512" lon="6.06217">
        <ele>765.35</ele>
        <time>2013-07-30T12:46:06Z</time>
      </trkpt>
      <trkpt lat="44.20513" lon="6.06219">
        <ele>764.39</ele>
        <time>2013-07-30T12:46:10Z</time>
      </trkpt>
      <trkpt lat="44.20514" lon="6.06221">
        <ele>765.35</ele>
        <time>2013-07-30T12:46:23Z</time>
      </trkpt>
      <trkpt lat="44.20515" lon="6.06219">
        <ele>765.83</ele>
        <time>2013-07-30T12:46:38Z</time>
      </trkpt>
      <trkpt lat="44.20515" lon="6.06217">
        <ele>765.35</ele>
        <time>2013-07-30T12:46:40Z</time>
      </trkpt>
      <trkpt lat="44.20511" lon="6.06213">
        <ele>764.39</ele>
        <time>2013-07-30T12:46:44Z</time>
      </trkpt>
      <trkpt lat="44.20504" lon="6.06207">
        <ele>764.39</ele>
        <time>2013-07-30T12:46:54Z</time>
      </trkpt>
      <trkpt lat="44.20489" lon="6.062">
        <ele>763.9</ele>
        <time>2013-07-30T12:47:07Z</time>
      </trkpt>
      <trkpt lat="44.2048" lon="6.06195">
        <ele>762.46</ele>
        <time>2013-07-30T12:47:19Z</time>
      </trkpt>
      <trkpt lat="44.20467" lon="6.06191">
        <ele>762.94</ele>
        <time>2013-07-30T12:47:32Z</time>
      </trkpt>
      <trkpt lat="44.20453" lon="6.06182">
        <ele>761.02</ele>
        <time>2013-07-30T12:47:46Z</time>
      </trkpt>
      <trkpt lat="44.20444" lon="6.06175">
        <ele>761.02</ele>
        <time>2013-07-30T12:48:00Z</time>
      </trkpt>
      <trkpt lat="44.20427" lon="6.06173">
        <ele>761.02</ele>
        <time>2013-07-30T12:48:16Z</time>
      </trkpt>
      <trkpt lat="44.20416" lon="6.06168">
        <ele>760.06</ele>
        <time>2013-07-30T12:48:29Z</time>
      </trkpt>
      <trkpt lat="44.20402" lon="6.06164">
        <ele>757.66</ele>
        <time>2013-07-30T12:48:44Z</time>
      </trkpt>
      <trkpt lat="44.20387" lon="6.0616">
        <ele>755.73</ele>
        <time>2013-07-30T12:48:57Z</time>
      </trkpt>
      <trkpt lat="44.20372" lon="6.06157">
        <ele>753.81</ele>
        <time>2013-07-30T12:49:11Z</time>
      </trkpt>
      <trkpt lat="44.20361" lon="6.06155">
        <ele>752.85</ele>
        <time>2013-07-30T12:49:22Z</time>
      </trkpt>
      <trkpt lat="44.20351" lon="6.06149">
        <ele>753.33</ele>
        <time>2013-07-30T12:49:34Z</time>
      </trkpt>
      <trkpt lat="44.2034" lon="6.06148">
        <ele>753.81</ele>
        <time>2013-07-30T12:49:48Z</time>
      </trkpt>
      <trkpt lat="44.20339" lon="6.0615">
        <ele>753.81</ele>
        <time>2013-07-30T12:50:05Z</time>
      </trkpt>
      <trkpt lat="44.20338" lon="6.06149">
        <ele>753.33</ele>
        <time>2013-07-30T12:50:18Z</time>
      </trkpt>
      <trkpt lat="44.20337" lon="6.06152">
        <ele>752.85</ele>
        <time>2013-07-30T12:50:43Z</time>
      </trkpt>
      <trkpt lat="44.20337" lon="6.06151">
        <ele>750.93</ele>
        <time>2013-07-30T12:51:06Z</time>
      </trkpt>
      <trkpt lat="44.20337" lon="6.06151">
        <ele>754.29</ele>
        <time>2013-07-30T12:51:07Z</time>
      </trkpt>
      <trkpt lat="44.20338" lon="6.06151">
        <ele>752.85</ele>
        <time>2013-07-30T12:51:08Z</time>
      </trkpt>
      <trkpt lat="44.20338" lon="6.06145">
        <ele>754.29</ele>
        <time>2013-07-30T12:51:11Z</time>
      </trkpt>
      <trkpt lat="44.20336" lon="6.06143">
        <ele>752.37</ele>
        <time>2013-07-30T12:51:16Z</time>
      </trkpt>
      <trkpt lat="44.20319" lon="6.06135">
        <ele>752.37</ele>
        <time>2013-07-30T12:51:32Z</time>
      </trkpt>
      <trkpt lat="44.20303" lon="6.06137">
        <ele>751.89</ele>
        <time>2013-07-30T12:51:48Z</time>
      </trkpt>
      <trkpt lat="44.20289" lon="6.06139">
        <ele>749.97</ele>
        <time>2013-07-30T12:52:02Z</time>
      </trkpt>
      <trkpt lat="44.20273" lon="6.06142">
        <ele>748.52</ele>
        <time>2013-07-30T12:52:18Z</time>
      </trkpt>
      <trkpt lat="44.20262" lon="6.06143">
        <ele>746.6</ele>
        <time>2013-07-30T12:52:29Z</time>
      </trkpt>
      <trkpt lat="44.20247" lon="6.06141">
        <ele>745.16</ele>
        <time>2013-07-30T12:52:46Z</time>
      </trkpt>
      <trkpt lat="44.20241" lon="6.06143">
        <ele>742.28</ele>
        <time>2013-07-30T12:52:57Z</time>
      </trkpt>
      <trkpt lat="44.20239" lon="6.06143">
        <ele>742.28</ele>
        <time>2013-07-30T12:52:58Z</time>
      </trkpt>
      <trkpt lat="44.20224" lon="6.06144">
        <ele>742.28</ele>
        <time>2013-07-30T12:53:12Z</time>
      </trkpt>
      <trkpt lat="44.20218" lon="6.06145">
        <ele>741.31</ele>
        <time>2013-07-30T12:53:18Z</time>
      </trkpt>
      <trkpt lat="44.20203" lon="6.06138">
        <ele>741.31</ele>
        <time>2013-07-30T12:53:33Z</time>
      </trkpt>
      <trkpt lat="44.20192" lon="6.06133">
        <ele>740.35</ele>
        <time>2013-07-30T12:53:44Z</time>
      </trkpt>
      <trkpt lat="44.20174" lon="6.06126">
        <ele>739.87</ele>
        <time>2013-07-30T12:53:59Z</time>
      </trkpt>
      <trkpt lat="44.2016" lon="6.06128">
        <ele>738.43</ele>
        <time>2013-07-30T12:54:13Z</time>
      </trkpt>
      <trkpt lat="44.20142" lon="6.06128">
        <ele>736.03</ele>
        <time>2013-07-30T12:54:29Z</time>
      </trkpt>
      <trkpt lat="44.20123" lon="6.0613">
        <ele>733.62</ele>
        <time>2013-07-30T12:54:46Z</time>
      </trkpt>
      <trkpt lat="44.20105" lon="6.06133">
        <ele>732.66</ele>
        <time>2013-07-30T12:55:02Z</time>
      </trkpt>
      <trkpt lat="44.20089" lon="6.06131">
        <ele>730.26</ele>
        <time>2013-07-30T12:55:17Z</time>
      </trkpt>
      <trkpt lat="44.20075" lon="6.0613">
        <ele>729.3</ele>
        <time>2013-07-30T12:55:31Z</time>
      </trkpt>
      <trkpt lat="44.20074" lon="6.0613">
        <ele>729.3</ele>
        <time>2013-07-30T12:55:32Z</time>
      </trkpt>
      <trkpt lat="44.20074" lon="6.06119">
        <ele>726.41</ele>
        <time>2013-07-30T12:55:45Z</time>
      </trkpt>
      <trkpt lat="44.20069" lon="6.0611">
        <ele>724.49</ele>
        <time>2013-07-30T12:55:57Z</time>
      </trkpt>
      <trkpt lat="44.20072" lon="6.06107">
        <ele>724.49</ele>
        <time>2013-07-30T12:56:14Z</time>
      </trkpt>
      <trkpt lat="44.2007" lon="6.06103">
        <ele>724.01</ele>
        <time>2013-07-30T12:56:25Z</time>
      </trkpt>
      <trkpt lat="44.20064" lon="6.06098">
        <ele>724.01</ele>
        <time>2013-07-30T12:56:49Z</time>
      </trkpt>
      <trkpt lat="44.20064" lon="6.06097">
        <ele>724.01</ele>
        <time>2013-07-30T12:57:22Z</time>
      </trkpt>
      <trkpt lat="44.20065" lon="6.06093">
        <ele>723.05</ele>
        <time>2013-07-30T12:57:38Z</time>
      </trkpt>
      <trkpt lat="44.2006" lon="6.06078">
        <ele>722.09</ele>
        <time>2013-07-30T12:57:55Z</time>
      </trkpt>
      <trkpt lat="44.20052" lon="6.06082">
        <ele>721.61</ele>
        <time>2013-07-30T12:58:08Z</time>
      </trkpt>
      <trkpt lat="44.2005" lon="6.06082">
        <ele>721.13</ele>
        <time>2013-07-30T12:58:09Z</time>
      </trkpt>
      <trkpt lat="44.20035" lon="6.06077">
        <ele>719.2</ele>
        <time>2013-07-30T12:58:25Z</time>
      </trkpt>
      <trkpt lat="44.20026" lon="6.06076">
        <ele>716.8</ele>
        <time>2013-07-30T12:58:37Z</time>
      </trkpt>
      <trkpt lat="44.20028" lon="6.06067">
        <ele>715.36</ele>
        <time>2013-07-30T12:58:45Z</time>
      </trkpt>
      <trkpt lat="44.20037" lon="6.06051">
        <ele>712.95</ele>
        <time>2013-07-30T12:58:59Z</time>
      </trkpt>
      <trkpt lat="44.20045" lon="6.06041">
        <ele>711.51</ele>
        <time>2013-07-30T12:59:13Z</time>
      </trkpt>
      <trkpt lat="44.20049" lon="6.0604">
        <ele>711.03</ele>
        <time>2013-07-30T12:59:17Z</time>
      </trkpt>
      <trkpt lat="44.20063" lon="6.06029">
        <ele>709.11</ele>
        <time>2013-07-30T12:59:33Z</time>
      </trkpt>
      <trkpt lat="44.20067" lon="6.06023">
        <ele>709.11</ele>
        <time>2013-07-30T12:59:38Z</time>
      </trkpt>
      <trkpt lat="44.20074" lon="6.06001">
        <ele>707.19</ele>
        <time>2013-07-30T12:59:50Z</time>
      </trkpt>
      <trkpt lat="44.20077" lon="6.05989">
        <ele>706.23</ele>
        <time>2013-07-30T13:00:01Z</time>
      </trkpt>
      <trkpt lat="44.20082" lon="6.05971">
        <ele>704.3</ele>
        <time>2013-07-30T13:00:14Z</time>
      </trkpt>
      <trkpt lat="44.20086" lon="6.05969">
        <ele>704.3</ele>
        <time>2013-07-30T13:00:18Z</time>
      </trkpt>
      <trkpt lat="44.20095" lon="6.05957">
        <ele>704.78</ele>
        <time>2013-07-30T13:00:32Z</time>
      </trkpt>
      <trkpt lat="44.20094" lon="6.05954">
        <ele>704.78</ele>
        <time>2013-07-30T13:00:35Z</time>
      </trkpt>
      <trkpt lat="44.2009" lon="6.05943">
        <ele>704.3</ele>
        <time>2013-07-30T13:00:43Z</time>
      </trkpt>
      <trkpt lat="44.20096" lon="6.05927">
        <ele>704.3</ele>
        <time>2013-07-30T13:00:54Z</time>
      </trkpt>
      <trkpt lat="44.20098" lon="6.05923">
        <ele>704.78</ele>
        <time>2013-07-30T13:00:59Z</time>
      </trkpt>
      <trkpt lat="44.20097" lon="6.05917">
        <ele>705.75</ele>
        <time>2013-07-30T13:01:04Z</time>
      </trkpt>
      <trkpt lat="44.20098" lon="6.05911">
        <ele>706.71</ele>
        <time>2013-07-30T13:01:08Z</time>
      </trkpt>
      <trkpt lat="44.20103" lon="6.059">
        <ele>707.19</ele>
        <time>2013-07-30T13:01:20Z</time>
      </trkpt>
      <trkpt lat="44.20107" lon="6.05897">
        <ele>708.63</ele>
        <time>2013-07-30T13:01:26Z</time>
      </trkpt>
      <trkpt lat="44.20117" lon="6.05879">
        <ele>708.63</ele>
        <time>2013-07-30T13:01:37Z</time>
      </trkpt>
      <trkpt lat="44.20118" lon="6.05865">
        <ele>706.71</ele>
        <time>2013-07-30T13:01:47Z</time>
      </trkpt>
      <trkpt lat="44.20117" lon="6.0585">
        <ele>704.3</ele>
        <time>2013-07-30T13:01:58Z</time>
      </trkpt>
      <trkpt lat="44.20118" lon="6.05848">
        <ele>704.3</ele>
        <time>2013-07-30T13:02:00Z</time>
      </trkpt>
      <trkpt lat="44.20123" lon="6.05833">
        <ele>700.94</ele>
        <time>2013-07-30T13:02:13Z</time>
      </trkpt>
      <trkpt lat="44.20121" lon="6.05819">
        <ele>698.05</ele>
        <time>2013-07-30T13:02:23Z</time>
      </trkpt>
      <trkpt lat="44.20114" lon="6.058">
        <ele>696.61</ele>
        <time>2013-07-30T13:02:36Z</time>
      </trkpt>
      <trkpt lat="44.20107" lon="6.05797">
        <ele>696.61</ele>
        <time>2013-07-30T13:02:50Z</time>
      </trkpt>
      <trkpt lat="44.2009" lon="6.05789">
        <ele>696.13</ele>
        <time>2013-07-30T13:03:01Z</time>
      </trkpt>
      <trkpt lat="44.20083" lon="6.05781">
        <ele>694.21</ele>
        <time>2013-07-30T13:03:13Z</time>
      </trkpt>
      <trkpt lat="44.20076" lon="6.05771">
        <ele>692.29</ele>
        <time>2013-07-30T13:03:23Z</time>
      </trkpt>
      <trkpt lat="44.20069" lon="6.05763">
        <ele>689.88</ele>
        <time>2013-07-30T13:03:33Z</time>
      </trkpt>
      <trkpt lat="44.20057" lon="6.05752">
        <ele>688.92</ele>
        <time>2013-07-30T13:03:45Z</time>
      </trkpt>
      <trkpt lat="44.2005" lon="6.0574">
        <ele>686.52</ele>
        <time>2013-07-30T13:03:57Z</time>
      </trkpt>
      <trkpt lat="44.20048" lon="6.05727">
        <ele>684.6</ele>
        <time>2013-07-30T13:04:08Z</time>
      </trkpt>
      <trkpt lat="44.20043" lon="6.05717">
        <ele>682.19</ele>
        <time>2013-07-30T13:04:18Z</time>
      </trkpt>
      <trkpt lat="44.2004" lon="6.05709">
        <ele>681.23</ele>
        <time>2013-07-30T13:04:25Z</time>
      </trkpt>
      <trkpt lat="44.20035" lon="6.05693">
        <ele>679.31</ele>
        <time>2013-07-30T13:04:38Z</time>
      </trkpt>
      <trkpt lat="44.20034" lon="6.05692">
        <ele>679.31</ele>
        <time>2013-07-30T13:04:39Z</time>
      </trkpt>
      <trkpt lat="44.2002" lon="6.05685">
        <ele>678.35</ele>
        <time>2013-07-30T13:04:51Z</time>
      </trkpt>
      <trkpt lat="44.20018" lon="6.05677">
        <ele>677.87</ele>
        <time>2013-07-30T13:04:58Z</time>
      </trkpt>
      <trkpt lat="44.20013" lon="6.05664">
        <ele>675.46</ele>
        <time>2013-07-30T13:05:09Z</time>
      </trkpt>
      <trkpt lat="44.20008" lon="6.05653">
        <ele>674.02</ele>
        <time>2013-07-30T13:05:20Z</time>
      </trkpt>
      <trkpt lat="44.20001" lon="6.0564">
        <ele>672.58</ele>
        <time>2013-07-30T13:05:32Z</time>
      </trkpt>
      <trkpt lat="44.19997" lon="6.05628">
        <ele>670.66</ele>
        <time>2013-07-30T13:05:43Z</time>
      </trkpt>
      <trkpt lat="44.19996" lon="6.05611">
        <ele>668.73</ele>
        <time>2013-07-30T13:05:55Z</time>
      </trkpt>
      <trkpt lat="44.19989" lon="6.05592">
        <ele>666.81</ele>
        <time>2013-07-30T13:06:10Z</time>
      </trkpt>
      <trkpt lat="44.19986" lon="6.05577">
        <ele>665.37</ele>
        <time>2013-07-30T13:06:22Z</time>
      </trkpt>
      <trkpt lat="44.19985" lon="6.05568">
        <ele>663.45</ele>
        <time>2013-07-30T13:06:36Z</time>
      </trkpt>
      <trkpt lat="44.19984" lon="6.05564">
        <ele>662.97</ele>
        <time>2013-07-30T13:06:49Z</time>
      </trkpt>
      <trkpt lat="44.19979" lon="6.05556">
        <ele>662.49</ele>
        <time>2013-07-30T13:07:01Z</time>
      </trkpt>
      <trkpt lat="44.19979" lon="6.05551">
        <ele>661.04</ele>
        <time>2013-07-30T13:07:20Z</time>
      </trkpt>
      <trkpt lat="44.19972" lon="6.05543">
        <ele>659.12</ele>
        <time>2013-07-30T13:07:31Z</time>
      </trkpt>
      <trkpt lat="44.1997" lon="6.0554">
        <ele>656.72</ele>
        <time>2013-07-30T13:07:40Z</time>
      </trkpt>
      <trkpt lat="44.19966" lon="6.05525">
        <ele>653.83</ele>
        <time>2013-07-30T13:07:54Z</time>
      </trkpt>
      <trkpt lat="44.19963" lon="6.05515">
        <ele>652.39</ele>
        <time>2013-07-30T13:08:02Z</time>
      </trkpt>
      <trkpt lat="44.19959" lon="6.055">
        <ele>649.99</ele>
        <time>2013-07-30T13:08:14Z</time>
      </trkpt>
      <trkpt lat="44.19953" lon="6.05492">
        <ele>648.55</ele>
        <time>2013-07-30T13:08:26Z</time>
      </trkpt>
      <trkpt lat="44.19952" lon="6.05486">
        <ele>648.07</ele>
        <time>2013-07-30T13:08:41Z</time>
      </trkpt>
      <trkpt lat="44.19946" lon="6.05477">
        <ele>645.18</ele>
        <time>2013-07-30T13:08:52Z</time>
      </trkpt>
      <trkpt lat="44.19936" lon="6.05461">
        <ele>642.78</ele>
        <time>2013-07-30T13:09:04Z</time>
      </trkpt>
      <trkpt lat="44.19925" lon="6.05454">
        <ele>642.3</ele>
        <time>2013-07-30T13:09:12Z</time>
      </trkpt>
      <trkpt lat="44.19913" lon="6.05458">
        <ele>641.34</ele>
        <time>2013-07-30T13:09:23Z</time>
      </trkpt>
      <trkpt lat="44.19909" lon="6.05452">
        <ele>641.34</ele>
        <time>2013-07-30T13:09:35Z</time>
      </trkpt>
      <trkpt lat="44.19908" lon="6.05447">
        <ele>641.82</ele>
        <time>2013-07-30T13:09:41Z</time>
      </trkpt>
      <trkpt lat="44.19906" lon="6.0543">
        <ele>642.3</ele>
        <time>2013-07-30T13:09:53Z</time>
      </trkpt>
      <trkpt lat="44.19898" lon="6.05437">
        <ele>642.3</ele>
        <time>2013-07-30T13:10:06Z</time>
      </trkpt>
      <trkpt lat="44.19898" lon="6.05433">
        <ele>643.26</ele>
        <time>2013-07-30T13:10:08Z</time>
      </trkpt>
      <trkpt lat="44.19898" lon="6.0541">
        <ele>641.82</ele>
        <time>2013-07-30T13:10:20Z</time>
      </trkpt>
      <trkpt lat="44.19888" lon="6.05394">
        <ele>641.34</ele>
        <time>2013-07-30T13:10:30Z</time>
      </trkpt>
      <trkpt lat="44.19875" lon="6.05386">
        <ele>640.86</ele>
        <time>2013-07-30T13:10:41Z</time>
      </trkpt>
      <trkpt lat="44.19863" lon="6.05385">
        <ele>639.89</ele>
        <time>2013-07-30T13:10:51Z</time>
      </trkpt>
      <trkpt lat="44.1985" lon="6.05378">
        <ele>639.41</ele>
        <time>2013-07-30T13:11:01Z</time>
      </trkpt>
      <trkpt lat="44.19835" lon="6.05372">
        <ele>638.93</ele>
        <time>2013-07-30T13:11:12Z</time>
      </trkpt>
      <trkpt lat="44.19822" lon="6.05366">
        <ele>637.97</ele>
        <time>2013-07-30T13:11:23Z</time>
      </trkpt>
      <trkpt lat="44.19807" lon="6.05356">
        <ele>637.01</ele>
        <time>2013-07-30T13:11:35Z</time>
      </trkpt>
      <trkpt lat="44.19794" lon="6.05348">
        <ele>636.05</ele>
        <time>2013-07-30T13:11:47Z</time>
      </trkpt>
      <trkpt lat="44.19783" lon="6.05342">
        <ele>635.09</ele>
        <time>2013-07-30T13:11:59Z</time>
      </trkpt>
      <trkpt lat="44.19769" lon="6.05331">
        <ele>635.09</ele>
        <time>2013-07-30T13:12:12Z</time>
      </trkpt>
      <trkpt lat="44.19758" lon="6.05324">
        <ele>634.61</ele>
        <time>2013-07-30T13:12:22Z</time>
      </trkpt>
      <trkpt lat="44.19745" lon="6.05313">
        <ele>634.61</ele>
        <time>2013-07-30T13:12:35Z</time>
      </trkpt>
      <trkpt lat="44.19732" lon="6.05306">
        <ele>634.13</ele>
        <time>2013-07-30T13:12:46Z</time>
      </trkpt>
      <trkpt lat="44.19722" lon="6.05298">
        <ele>634.13</ele>
        <time>2013-07-30T13:12:55Z</time>
      </trkpt>
      <trkpt lat="44.19708" lon="6.05286">
        <ele>633.65</ele>
        <time>2013-07-30T13:13:09Z</time>
      </trkpt>
      <trkpt lat="44.19698" lon="6.05275">
        <ele>633.17</ele>
        <time>2013-07-30T13:13:20Z</time>
      </trkpt>
      <trkpt lat="44.19685" lon="6.0526">
        <ele>632.2</ele>
        <time>2013-07-30T13:13:33Z</time>
      </trkpt>
      <trkpt lat="44.19674" lon="6.05251">
        <ele>631.72</ele>
        <time>2013-07-30T13:13:43Z</time>
      </trkpt>
      <trkpt lat="44.19664" lon="6.05241">
        <ele>631.72</ele>
        <time>2013-07-30T13:13:53Z</time>
      </trkpt>
      <trkpt lat="44.19652" lon="6.05231">
        <ele>631.72</ele>
        <time>2013-07-30T13:14:04Z</time>
      </trkpt>
      <trkpt lat="44.19642" lon="6.05217">
        <ele>631.72</ele>
        <time>2013-07-30T13:14:15Z</time>
      </trkpt>
      <trkpt lat="44.1964" lon="6.05216">
        <ele>631.72</ele>
        <time>2013-07-30T13:14:17Z</time>
      </trkpt>
      <trkpt lat="44.19627" lon="6.05204">
        <ele>631.24</ele>
        <time>2013-07-30T13:14:28Z</time>
      </trkpt>
      <trkpt lat="44.19616" lon="6.05197">
        <ele>630.76</ele>
        <time>2013-07-30T13:14:37Z</time>
      </trkpt>
      <trkpt lat="44.19615" lon="6.05196">
        <ele>630.28</ele>
        <time>2013-07-30T13:14:38Z</time>
      </trkpt>
      <trkpt lat="44.19605" lon="6.05183">
        <ele>630.28</ele>
        <time>2013-07-30T13:14:49Z</time>
      </trkpt>
      <trkpt lat="44.19595" lon="6.05173">
        <ele>629.8</ele>
        <time>2013-07-30T13:14:58Z</time>
      </trkpt>
      <trkpt lat="44.19586" lon="6.05162">
        <ele>630.28</ele>
        <time>2013-07-30T13:15:08Z</time>
      </trkpt>
      <trkpt lat="44.19583" lon="6.05157">
        <ele>629.8</ele>
        <time>2013-07-30T13:15:12Z</time>
      </trkpt>
      <trkpt lat="44.19579" lon="6.05146">
        <ele>629.32</ele>
        <time>2013-07-30T13:15:22Z</time>
      </trkpt>
      <trkpt lat="44.19578" lon="6.05147">
        <ele>628.84</ele>
        <time>2013-07-30T13:15:25Z</time>
      </trkpt>
      <trkpt lat="44.19578" lon="6.05142">
        <ele>628.84</ele>
        <time>2013-07-30T13:15:29Z</time>
      </trkpt>
      <trkpt lat="44.1958" lon="6.05128">
        <ele>628.84</ele>
        <time>2013-07-30T13:15:40Z</time>
      </trkpt>
      <trkpt lat="44.19583" lon="6.05118">
        <ele>628.36</ele>
        <time>2013-07-30T13:15:51Z</time>
      </trkpt>
      <trkpt lat="44.19585" lon="6.05115">
        <ele>628.36</ele>
        <time>2013-07-30T13:16:06Z</time>
      </trkpt>
      <trkpt lat="44.19586" lon="6.05113">
        <ele>628.84</ele>
        <time>2013-07-30T13:16:22Z</time>
      </trkpt>
      <trkpt lat="44.19585" lon="6.05109">
        <ele>628.36</ele>
        <time>2013-07-30T13:16:45Z</time>
      </trkpt>
      <trkpt lat="44.19585" lon="6.05108">
        <ele>627.88</ele>
        <time>2013-07-30T13:16:59Z</time>
      </trkpt>
      <trkpt lat="44.19586" lon="6.05112">
        <ele>628.36</ele>
        <time>2013-07-30T13:17:17Z</time>
      </trkpt>
      <trkpt lat="44.19588" lon="6.05104">
        <ele>626.92</ele>
        <time>2013-07-30T13:17:32Z</time>
      </trkpt>
      <trkpt lat="44.19585" lon="6.05105">
        <ele>627.4</ele>
        <time>2013-07-30T13:17:43Z</time>
      </trkpt>
      <trkpt lat="44.19582" lon="6.05106">
        <ele>627.88</ele>
        <time>2013-07-30T13:17:55Z</time>
      </trkpt>
      <trkpt lat="44.19585" lon="6.05108">
        <ele>625.96</ele>
        <time>2013-07-30T13:18:08Z</time>
      </trkpt>
      <trkpt lat="44.19589" lon="6.05108">
        <ele>625.96</ele>
        <time>2013-07-30T13:18:21Z</time>
      </trkpt>
      <trkpt lat="44.19592" lon="6.05104">
        <ele>628.36</ele>
        <time>2013-07-30T13:18:33Z</time>
      </trkpt>
      <trkpt lat="44.19596" lon="6.051">
        <ele>627.88</ele>
        <time>2013-07-30T13:18:44Z</time>
      </trkpt>
      <trkpt lat="44.19589" lon="6.05103">
        <ele>627.4</ele>
        <time>2013-07-30T13:19:13Z</time>
      </trkpt>
      <trkpt lat="44.19595" lon="6.05099">
        <ele>628.36</ele>
        <time>2013-07-30T13:19:24Z</time>
      </trkpt>
      <trkpt lat="44.19597" lon="6.05098">
        <ele>627.88</ele>
        <time>2013-07-30T13:19:46Z</time>
      </trkpt>
      <trkpt lat="44.19596" lon="6.05099">
        <ele>627.88</ele>
        <time>2013-07-30T13:20:02Z</time>
      </trkpt>
    </trkseg>
  </trk>
</gpx>